﻿<?xml version="1.0" encoding="UTF-8" standalone="no" ?>
<gpx xmlns="http://www.topografix.com/GPX/1/1" creator="CompeGPS" version="1.1" xmlns:xsi="http://www.w3.org/2001/XMLSchema-instance" xsi:schemaLocation="http://www.topografix.com/GPX/1/1 http://www.topografix.com/GPX/1/1/gpx.xsd http://www.garmin.com/xmlschemas/GpxExtensions/v3 http://www.garmin.com/xmlschemas/GpxExtensionsv3.xsd http://www.garmin.com/xmlschemas/TrackPointExtension/v1 http://www.garmin.com/xmlschemas/TrackPointExtensionv1.xsd" xmlns:gpxtpx="http://www.garmin.com/xmlschemas/TrackPointExtension/v1">
  <metadata>
    <author>
      <email id="" domain=""/>
    </author>
    <copyright author="">
      <license></license>
    </copyright>
    <link href="http://www.compegps.com">
      <text>CompeGPS TEAM, SL</text>
    </link>
    <time>2019-11-09T12:53:22.999Z</time>
    <bounds maxlat="42.176970" maxlon="1.698538" minlat="42.140939" minlon="1.668615"/>
  </metadata>
  <trk>
    <name>Ruta Pont Quebradís</name>
    <desc>&lt;p&gt;Hora Inicio: 8:09 9 nov. 2019&lt;br/&gt;Hora Fin: 13:53 9 nov. 2019&lt;br/&gt;Distancia recorrida: 14,3 km (05:43)&lt;br/&gt;Tiempo en movimiento: 03:57&lt;br/&gt;Velocidad media: 2,5 km/h&lt;br/&gt;Vel. en Mov.: 3,63 km/h&lt;br/&gt;Velocidad Máxima: 10,3 km/h&lt;br/&gt;Altura Mínima: 876 m&lt;br/&gt;Altura Máxima: 1233 m&lt;br/&gt;Velocidad Ascenso: 230,5 m/h&lt;br/&gt;Velocidad Descenso: -261,8 m/h&lt;br/&gt;Ganancia Altitud: 691 m&lt;br/&gt;Pérdida Altitud: -684 m&lt;br/&gt;Tiempo Ascenso: 02:59&lt;br/&gt;Tiempo Descenso: 02:36&lt;br/&gt;&lt;/p&gt;&lt;hr align=&quot;center&quot; width=&quot;480&quot; style=&quot;height: 2px; width: 517px&quot;/&gt;</desc>
    <trkseg>
      <trkpt lat="42.140939" lon="1.671747">
        <ele>877.0</ele>
        <time>2019-11-09T07:09:33.000Z</time>
        <cmt>0000044</cmt>
        <sym>Waypoint</sym>
      </trkpt>
      <trkpt lat="42.140984" lon="1.671994">
        <ele>876.2</ele>
        <time>2019-11-09T07:13:38.999Z</time>
      </trkpt>
      <trkpt lat="42.141086" lon="1.672216">
        <ele>876.0</ele>
        <time>2019-11-09T07:13:54.999Z</time>
      </trkpt>
      <trkpt lat="42.141124" lon="1.672472">
        <ele>876.7</ele>
        <time>2019-11-09T07:14:10.999Z</time>
      </trkpt>
      <trkpt lat="42.141145" lon="1.672723">
        <ele>877.4</ele>
        <time>2019-11-09T07:14:24.999Z</time>
      </trkpt>
      <trkpt lat="42.141219" lon="1.672957">
        <ele>877.8</ele>
        <time>2019-11-09T07:14:39.999Z</time>
      </trkpt>
      <trkpt lat="42.141372" lon="1.673099">
        <ele>878.5</ele>
        <time>2019-11-09T07:14:53.999Z</time>
      </trkpt>
      <trkpt lat="42.141528" lon="1.673224">
        <ele>879.4</ele>
        <time>2019-11-09T07:15:7.999Z</time>
      </trkpt>
      <trkpt lat="42.141681" lon="1.673360">
        <ele>880.3</ele>
        <time>2019-11-09T07:15:23.999Z</time>
      </trkpt>
      <trkpt lat="42.141839" lon="1.673505">
        <ele>882.7</ele>
        <time>2019-11-09T07:15:44.999Z</time>
      </trkpt>
      <trkpt lat="42.141974" lon="1.673667">
        <ele>885.4</ele>
        <time>2019-11-09T07:16:1.999Z</time>
      </trkpt>
      <trkpt lat="42.142073" lon="1.673882">
        <ele>887.9</ele>
        <time>2019-11-09T07:16:17.999Z</time>
      </trkpt>
      <trkpt lat="42.142163" lon="1.674098">
        <ele>891.1</ele>
        <time>2019-11-09T07:16:34.999Z</time>
      </trkpt>
      <trkpt lat="42.142297" lon="1.674264">
        <ele>891.0</ele>
        <time>2019-11-09T07:16:49.999Z</time>
      </trkpt>
      <trkpt lat="42.142429" lon="1.674443">
        <ele>892.7</ele>
        <time>2019-11-09T07:17:3.999Z</time>
      </trkpt>
      <trkpt lat="42.142519" lon="1.674659">
        <ele>892.9</ele>
        <time>2019-11-09T07:17:17.999Z</time>
      </trkpt>
      <trkpt lat="42.142640" lon="1.674863">
        <ele>893.7</ele>
        <time>2019-11-09T07:17:31.999Z</time>
      </trkpt>
      <trkpt lat="42.142727" lon="1.675084">
        <ele>895.1</ele>
        <time>2019-11-09T07:17:46.999Z</time>
      </trkpt>
      <trkpt lat="42.142762" lon="1.675325">
        <ele>899.4</ele>
        <time>2019-11-09T07:18:4.999Z</time>
      </trkpt>
      <trkpt lat="42.142915" lon="1.675461">
        <ele>901.0</ele>
        <time>2019-11-09T07:18:23.999Z</time>
      </trkpt>
      <trkpt lat="42.143078" lon="1.675355">
        <ele>903.9</ele>
        <time>2019-11-09T07:18:44.999Z</time>
      </trkpt>
      <trkpt lat="42.143244" lon="1.675252">
        <ele>903.7</ele>
        <time>2019-11-09T07:19:0.999Z</time>
      </trkpt>
      <trkpt lat="42.143414" lon="1.675156">
        <ele>900.6</ele>
        <time>2019-11-09T07:19:15.999Z</time>
      </trkpt>
      <trkpt lat="42.143509" lon="1.675365">
        <ele>897.0</ele>
        <time>2019-11-09T07:19:51.999Z</time>
      </trkpt>
      <trkpt lat="42.143413" lon="1.675578">
        <ele>902.2</ele>
        <time>2019-11-09T07:20:9.999Z</time>
      </trkpt>
      <trkpt lat="42.143361" lon="1.675825">
        <ele>904.8</ele>
        <time>2019-11-09T07:20:27.999Z</time>
      </trkpt>
      <trkpt lat="42.143400" lon="1.676077">
        <ele>906.5</ele>
        <time>2019-11-09T07:20:44.999Z</time>
      </trkpt>
      <trkpt lat="42.143476" lon="1.676298">
        <ele>907.4</ele>
        <time>2019-11-09T07:20:59.999Z</time>
      </trkpt>
      <trkpt lat="42.143606" lon="1.676476">
        <ele>907.5</ele>
        <time>2019-11-09T07:21:15.999Z</time>
      </trkpt>
      <trkpt lat="42.143782" lon="1.676544">
        <ele>904.7</ele>
        <time>2019-11-09T07:21:30.999Z</time>
      </trkpt>
      <trkpt lat="42.143938" lon="1.676677">
        <ele>901.8</ele>
        <time>2019-11-09T07:21:46.999Z</time>
      </trkpt>
      <trkpt lat="42.144065" lon="1.676861">
        <ele>899.7</ele>
        <time>2019-11-09T07:22:1.999Z</time>
      </trkpt>
      <trkpt lat="42.144215" lon="1.677001">
        <ele>894.7</ele>
        <time>2019-11-09T07:22:16.999Z</time>
      </trkpt>
      <trkpt lat="42.144375" lon="1.677124">
        <ele>891.5</ele>
        <time>2019-11-09T07:22:31.999Z</time>
      </trkpt>
      <trkpt lat="42.144543" lon="1.677227">
        <ele>890.2</ele>
        <time>2019-11-09T07:22:45.999Z</time>
      </trkpt>
      <trkpt lat="42.144734" lon="1.677250">
        <ele>888.2</ele>
        <time>2019-11-09T07:22:59.999Z</time>
      </trkpt>
      <trkpt lat="42.144912" lon="1.677306">
        <ele>890.2</ele>
        <time>2019-11-09T07:23:13.999Z</time>
      </trkpt>
      <trkpt lat="42.145089" lon="1.677375">
        <ele>890.9</ele>
        <time>2019-11-09T07:23:26.999Z</time>
      </trkpt>
      <trkpt lat="42.145268" lon="1.677470">
        <ele>892.2</ele>
        <time>2019-11-09T07:23:41.999Z</time>
      </trkpt>
      <trkpt lat="42.145424" lon="1.677611">
        <ele>891.4</ele>
        <time>2019-11-09T07:23:56.999Z</time>
      </trkpt>
      <trkpt lat="42.145579" lon="1.677763">
        <ele>892.5</ele>
        <time>2019-11-09T07:24:9.999Z</time>
      </trkpt>
      <trkpt lat="42.145755" lon="1.677865">
        <ele>892.3</ele>
        <time>2019-11-09T07:24:24.999Z</time>
      </trkpt>
      <trkpt lat="42.145918" lon="1.677987">
        <ele>893.3</ele>
        <time>2019-11-09T07:24:38.999Z</time>
      </trkpt>
      <trkpt lat="42.146066" lon="1.678138">
        <ele>892.8</ele>
        <time>2019-11-09T07:24:51.999Z</time>
      </trkpt>
      <trkpt lat="42.146216" lon="1.678274">
        <ele>894.0</ele>
        <time>2019-11-09T07:25:6.999Z</time>
      </trkpt>
      <trkpt lat="42.146386" lon="1.678355">
        <ele>894.2</ele>
        <time>2019-11-09T07:25:20.999Z</time>
      </trkpt>
      <trkpt lat="42.146532" lon="1.678499">
        <ele>892.6</ele>
        <time>2019-11-09T07:25:34.999Z</time>
      </trkpt>
      <trkpt lat="42.146662" lon="1.678684">
        <ele>893.6</ele>
        <time>2019-11-09T07:25:48.999Z</time>
      </trkpt>
      <trkpt lat="42.146812" lon="1.678845">
        <ele>895.3</ele>
        <time>2019-11-09T07:26:3.999Z</time>
      </trkpt>
      <trkpt lat="42.146938" lon="1.679035">
        <ele>895.3</ele>
        <time>2019-11-09T07:26:16.999Z</time>
      </trkpt>
      <trkpt lat="42.147079" lon="1.679198">
        <ele>896.1</ele>
        <time>2019-11-09T07:26:30.999Z</time>
      </trkpt>
      <trkpt lat="42.147198" lon="1.679383">
        <ele>896.7</ele>
        <time>2019-11-09T07:26:44.999Z</time>
      </trkpt>
      <trkpt lat="42.147362" lon="1.679502">
        <ele>896.6</ele>
        <time>2019-11-09T07:26:59.999Z</time>
      </trkpt>
      <trkpt lat="42.147535" lon="1.679576">
        <ele>899.6</ele>
        <time>2019-11-09T07:27:16.999Z</time>
      </trkpt>
      <trkpt lat="42.147718" lon="1.679525">
        <ele>902.5</ele>
        <time>2019-11-09T07:27:31.999Z</time>
      </trkpt>
      <trkpt lat="42.147906" lon="1.679512">
        <ele>905.4</ele>
        <time>2019-11-09T07:27:48.999Z</time>
      </trkpt>
      <trkpt lat="42.148086" lon="1.679478">
        <ele>906.3</ele>
        <time>2019-11-09T07:28:2.999Z</time>
      </trkpt>
      <trkpt lat="42.148262" lon="1.679380">
        <ele>906.4</ele>
        <time>2019-11-09T07:28:16.999Z</time>
      </trkpt>
      <trkpt lat="42.148442" lon="1.679298">
        <ele>907.3</ele>
        <time>2019-11-09T07:28:30.999Z</time>
      </trkpt>
      <trkpt lat="42.148620" lon="1.679229">
        <ele>906.8</ele>
        <time>2019-11-09T07:28:43.999Z</time>
      </trkpt>
      <trkpt lat="42.148794" lon="1.679158">
        <ele>906.6</ele>
        <time>2019-11-09T07:28:56.999Z</time>
      </trkpt>
      <trkpt lat="42.148979" lon="1.679160">
        <ele>906.5</ele>
        <time>2019-11-09T07:29:11.999Z</time>
      </trkpt>
      <trkpt lat="42.149162" lon="1.679206">
        <ele>906.7</ele>
        <time>2019-11-09T07:29:29.999Z</time>
      </trkpt>
      <trkpt lat="42.149346" lon="1.679181">
        <ele>904.5</ele>
        <time>2019-11-09T07:29:43.999Z</time>
      </trkpt>
      <trkpt lat="42.149509" lon="1.679285">
        <ele>903.3</ele>
        <time>2019-11-09T07:30:2.999Z</time>
      </trkpt>
      <trkpt lat="42.149682" lon="1.679366">
        <ele>901.0</ele>
        <time>2019-11-09T07:30:14.999Z</time>
      </trkpt>
      <trkpt lat="42.149869" lon="1.679285">
        <ele>898.3</ele>
        <time>2019-11-09T07:30:29.999Z</time>
      </trkpt>
      <trkpt lat="42.150011" lon="1.679126">
        <ele>898.2</ele>
        <time>2019-11-09T07:30:44.999Z</time>
      </trkpt>
      <trkpt lat="42.150130" lon="1.678937">
        <ele>899.5</ele>
        <time>2019-11-09T07:31:4.999Z</time>
      </trkpt>
      <trkpt lat="42.150239" lon="1.678739">
        <ele>903.4</ele>
        <time>2019-11-09T07:31:21.999Z</time>
      </trkpt>
      <trkpt lat="42.150423" lon="1.678675">
        <ele>906.6</ele>
        <time>2019-11-09T07:31:40.999Z</time>
      </trkpt>
      <trkpt lat="42.150614" lon="1.678615">
        <ele>907.0</ele>
        <time>2019-11-09T07:31:53.999Z</time>
      </trkpt>
      <trkpt lat="42.150797" lon="1.678579">
        <ele>906.7</ele>
        <time>2019-11-09T07:32:10.999Z</time>
      </trkpt>
      <trkpt lat="42.150981" lon="1.678562">
        <ele>906.7</ele>
        <time>2019-11-09T07:32:25.999Z</time>
      </trkpt>
      <trkpt lat="42.151153" lon="1.678633">
        <ele>906.7</ele>
        <time>2019-11-09T07:32:43.999Z</time>
      </trkpt>
      <trkpt lat="42.151339" lon="1.678603">
        <ele>912.6</ele>
        <time>2019-11-09T07:33:22.999Z</time>
      </trkpt>
      <trkpt lat="42.151519" lon="1.678626">
        <ele>912.3</ele>
        <time>2019-11-09T07:33:54.999Z</time>
      </trkpt>
      <trkpt lat="42.151709" lon="1.678623">
        <ele>915.5</ele>
        <time>2019-11-09T07:34:34.999Z</time>
      </trkpt>
      <trkpt lat="42.151841" lon="1.678450">
        <ele>916.2</ele>
        <time>2019-11-09T07:35:6.999Z</time>
      </trkpt>
      <trkpt lat="42.152019" lon="1.678518">
        <ele>914.8</ele>
        <time>2019-11-09T07:35:28.999Z</time>
      </trkpt>
      <trkpt lat="42.152201" lon="1.678538">
        <ele>913.8</ele>
        <time>2019-11-09T07:35:52.999Z</time>
      </trkpt>
      <trkpt lat="42.152374" lon="1.678440">
        <ele>911.8</ele>
        <time>2019-11-09T07:38:17.999Z</time>
      </trkpt>
      <trkpt lat="42.152564" lon="1.678394">
        <ele>909.9</ele>
        <time>2019-11-09T07:38:39.999Z</time>
      </trkpt>
      <trkpt lat="42.152741" lon="1.678453">
        <ele>908.3</ele>
        <time>2019-11-09T07:38:55.999Z</time>
      </trkpt>
      <trkpt lat="42.152924" lon="1.678400">
        <ele>921.2</ele>
        <time>2019-11-09T07:40:1.999Z</time>
      </trkpt>
      <trkpt lat="42.153098" lon="1.678318">
        <ele>926.4</ele>
        <time>2019-11-09T07:40:29.999Z</time>
      </trkpt>
      <trkpt lat="42.153281" lon="1.678301">
        <ele>930.9</ele>
        <time>2019-11-09T07:41:3.999Z</time>
      </trkpt>
      <trkpt lat="42.153467" lon="1.678297">
        <ele>924.8</ele>
        <time>2019-11-09T07:41:26.999Z</time>
      </trkpt>
      <trkpt lat="42.153652" lon="1.678337">
        <ele>920.4</ele>
        <time>2019-11-09T07:41:51.999Z</time>
      </trkpt>
      <trkpt lat="42.153830" lon="1.678416">
        <ele>915.0</ele>
        <time>2019-11-09T07:42:8.999Z</time>
      </trkpt>
      <trkpt lat="42.154016" lon="1.678417">
        <ele>917.1</ele>
        <time>2019-11-09T07:42:30.999Z</time>
      </trkpt>
      <trkpt lat="42.154207" lon="1.678400">
        <ele>921.5</ele>
        <time>2019-11-09T07:42:52.000Z</time>
      </trkpt>
      <trkpt lat="42.154389" lon="1.678345">
        <ele>926.5</ele>
        <time>2019-11-09T07:43:28.000Z</time>
      </trkpt>
      <trkpt lat="42.154570" lon="1.678389">
        <ele>930.9</ele>
        <time>2019-11-09T07:43:53.000Z</time>
      </trkpt>
      <trkpt lat="42.154745" lon="1.678329">
        <ele>932.8</ele>
        <time>2019-11-09T07:44:20.000Z</time>
      </trkpt>
      <trkpt lat="42.154943" lon="1.678340">
        <ele>933.7</ele>
        <time>2019-11-09T07:44:34.000Z</time>
      </trkpt>
      <trkpt lat="42.155133" lon="1.678379">
        <ele>933.3</ele>
        <time>2019-11-09T07:44:50.000Z</time>
      </trkpt>
      <trkpt lat="42.155320" lon="1.678435">
        <ele>933.7</ele>
        <time>2019-11-09T07:45:3.000Z</time>
      </trkpt>
      <trkpt lat="42.155500" lon="1.678477">
        <ele>934.2</ele>
        <time>2019-11-09T07:45:30.000Z</time>
      </trkpt>
      <trkpt lat="42.155658" lon="1.678612">
        <ele>931.7</ele>
        <time>2019-11-09T07:46:38.000Z</time>
      </trkpt>
      <trkpt lat="42.155820" lon="1.678730">
        <ele>928.4</ele>
        <time>2019-11-09T07:46:51.000Z</time>
      </trkpt>
      <trkpt lat="42.155983" lon="1.678849">
        <ele>924.6</ele>
        <time>2019-11-09T07:47:6.000Z</time>
      </trkpt>
      <trkpt lat="42.156166" lon="1.678781">
        <ele>916.8</ele>
        <time>2019-11-09T07:47:34.000Z</time>
      </trkpt>
      <trkpt lat="42.156233" lon="1.678544">
        <ele>915.5</ele>
        <time>2019-11-09T07:49:21.000Z</time>
      </trkpt>
      <trkpt lat="42.156265" lon="1.678299">
        <ele>916.2</ele>
        <time>2019-11-09T07:49:35.000Z</time>
      </trkpt>
      <trkpt lat="42.156446" lon="1.678283">
        <ele>924.6</ele>
        <time>2019-11-09T07:50:25.000Z</time>
      </trkpt>
      <trkpt lat="42.156531" lon="1.678506">
        <ele>926.6</ele>
        <time>2019-11-09T07:50:40.000Z</time>
      </trkpt>
      <trkpt lat="42.156718" lon="1.678532">
        <ele>933.1</ele>
        <time>2019-11-09T07:51:42.000Z</time>
      </trkpt>
      <trkpt lat="42.156739" lon="1.678282">
        <ele>939.5</ele>
        <time>2019-11-09T07:52:18.000Z</time>
      </trkpt>
      <trkpt lat="42.156681" lon="1.678046">
        <ele>942.6</ele>
        <time>2019-11-09T07:53:4.000Z</time>
      </trkpt>
      <trkpt lat="42.156620" lon="1.677804">
        <ele>946.2</ele>
        <time>2019-11-09T07:53:32.000Z</time>
      </trkpt>
      <trkpt lat="42.156600" lon="1.677552">
        <ele>949.5</ele>
        <time>2019-11-09T07:53:49.000Z</time>
      </trkpt>
      <trkpt lat="42.156537" lon="1.677319">
        <ele>953.3</ele>
        <time>2019-11-09T07:54:7.000Z</time>
      </trkpt>
      <trkpt lat="42.156512" lon="1.677071">
        <ele>956.7</ele>
        <time>2019-11-09T07:54:25.000Z</time>
      </trkpt>
      <trkpt lat="42.156454" lon="1.676837">
        <ele>960.5</ele>
        <time>2019-11-09T07:54:45.000Z</time>
      </trkpt>
      <trkpt lat="42.156441" lon="1.676593">
        <ele>964.5</ele>
        <time>2019-11-09T07:55:6.000Z</time>
      </trkpt>
      <trkpt lat="42.156386" lon="1.676352">
        <ele>968.6</ele>
        <time>2019-11-09T07:55:27.000Z</time>
      </trkpt>
      <trkpt lat="42.156281" lon="1.676148">
        <ele>972.5</ele>
        <time>2019-11-09T07:55:47.000Z</time>
      </trkpt>
      <trkpt lat="42.156147" lon="1.675965">
        <ele>975.7</ele>
        <time>2019-11-09T07:56:5.000Z</time>
      </trkpt>
      <trkpt lat="42.156014" lon="1.675800">
        <ele>978.0</ele>
        <time>2019-11-09T07:56:26.000Z</time>
      </trkpt>
      <trkpt lat="42.155924" lon="1.675587">
        <ele>983.3</ele>
        <time>2019-11-09T07:56:52.000Z</time>
      </trkpt>
      <trkpt lat="42.155863" lon="1.675353">
        <ele>985.3</ele>
        <time>2019-11-09T07:57:12.000Z</time>
      </trkpt>
      <trkpt lat="42.155814" lon="1.675116">
        <ele>987.1</ele>
        <time>2019-11-09T07:57:33.000Z</time>
      </trkpt>
      <trkpt lat="42.155803" lon="1.674872">
        <ele>987.7</ele>
        <time>2019-11-09T07:57:54.000Z</time>
      </trkpt>
      <trkpt lat="42.155859" lon="1.674639">
        <ele>991.1</ele>
        <time>2019-11-09T07:58:14.000Z</time>
      </trkpt>
      <trkpt lat="42.155852" lon="1.674389">
        <ele>994.3</ele>
        <time>2019-11-09T07:58:35.000Z</time>
      </trkpt>
      <trkpt lat="42.155772" lon="1.674162">
        <ele>999.1</ele>
        <time>2019-11-09T07:58:58.000Z</time>
      </trkpt>
      <trkpt lat="42.155807" lon="1.673922">
        <ele>1003.9</ele>
        <time>2019-11-09T07:59:25.000Z</time>
      </trkpt>
      <trkpt lat="42.155794" lon="1.673679">
        <ele>1008.5</ele>
        <time>2019-11-09T07:59:46.000Z</time>
      </trkpt>
      <trkpt lat="42.155813" lon="1.673436">
        <ele>1013.9</ele>
        <time>2019-11-09T08:00:16.000Z</time>
      </trkpt>
      <trkpt lat="42.155840" lon="1.673195">
        <ele>1017.6</ele>
        <time>2019-11-09T08:00:38.000Z</time>
      </trkpt>
      <trkpt lat="42.155896" lon="1.672949">
        <ele>1019.9</ele>
        <time>2019-11-09T08:00:54.000Z</time>
      </trkpt>
      <trkpt lat="42.155980" lon="1.672734">
        <ele>1020.1</ele>
        <time>2019-11-09T08:01:11.000Z</time>
      </trkpt>
      <trkpt lat="42.155869" lon="1.672532">
        <ele>1019.2</ele>
        <time>2019-11-09T08:01:56.000Z</time>
      </trkpt>
      <trkpt lat="42.155792" lon="1.672309">
        <ele>1023.5</ele>
        <time>2019-11-09T08:05:49.000Z</time>
      </trkpt>
      <trkpt lat="42.155809" lon="1.672064">
        <ele>1027.0</ele>
        <time>2019-11-09T08:06:38.000Z</time>
      </trkpt>
      <trkpt lat="42.155864" lon="1.671832">
        <ele>1030.8</ele>
        <time>2019-11-09T08:06:57.000Z</time>
      </trkpt>
      <trkpt lat="42.155938" lon="1.671609">
        <ele>1032.5</ele>
        <time>2019-11-09T08:07:14.000Z</time>
      </trkpt>
      <trkpt lat="42.156039" lon="1.671401">
        <ele>1036.2</ele>
        <time>2019-11-09T08:07:36.000Z</time>
      </trkpt>
      <trkpt lat="42.156221" lon="1.671325">
        <ele>1037.5</ele>
        <time>2019-11-09T08:07:50.000Z</time>
      </trkpt>
      <trkpt lat="42.156357" lon="1.671153">
        <ele>1039.0</ele>
        <time>2019-11-09T08:08:5.000Z</time>
      </trkpt>
      <trkpt lat="42.156428" lon="1.670929">
        <ele>1040.2</ele>
        <time>2019-11-09T08:08:23.000Z</time>
      </trkpt>
      <trkpt lat="42.156605" lon="1.670878">
        <ele>1041.5</ele>
        <time>2019-11-09T08:08:39.000Z</time>
      </trkpt>
      <trkpt lat="42.156642" lon="1.670639">
        <ele>1047.5</ele>
        <time>2019-11-09T08:10:46.000Z</time>
      </trkpt>
      <trkpt lat="42.156634" lon="1.670386">
        <ele>1049.8</ele>
        <time>2019-11-09T08:11:2.000Z</time>
      </trkpt>
      <trkpt lat="42.156758" lon="1.670195">
        <ele>1052.0</ele>
        <time>2019-11-09T08:11:20.000Z</time>
      </trkpt>
      <trkpt lat="42.156930" lon="1.670119">
        <ele>1053.1</ele>
        <time>2019-11-09T08:11:34.000Z</time>
      </trkpt>
      <trkpt lat="42.157111" lon="1.670123">
        <ele>1055.0</ele>
        <time>2019-11-09T08:12:1.000Z</time>
      </trkpt>
      <trkpt lat="42.157243" lon="1.669953">
        <ele>1055.8</ele>
        <time>2019-11-09T08:12:50.000Z</time>
      </trkpt>
      <trkpt lat="42.157382" lon="1.669799">
        <ele>1058.6</ele>
        <time>2019-11-09T08:13:25.000Z</time>
      </trkpt>
      <trkpt lat="42.157488" lon="1.669599">
        <ele>1061.6</ele>
        <time>2019-11-09T08:13:50.000Z</time>
      </trkpt>
      <trkpt lat="42.157668" lon="1.669525">
        <ele>1067.1</ele>
        <time>2019-11-09T08:14:13.000Z</time>
      </trkpt>
      <trkpt lat="42.157833" lon="1.669404">
        <ele>1072.8</ele>
        <time>2019-11-09T08:14:45.000Z</time>
      </trkpt>
      <trkpt lat="42.158004" lon="1.669302">
        <ele>1076.0</ele>
        <time>2019-11-09T08:15:7.000Z</time>
      </trkpt>
      <trkpt lat="42.158187" lon="1.669292">
        <ele>1080.5</ele>
        <time>2019-11-09T08:15:27.000Z</time>
      </trkpt>
      <trkpt lat="42.158302" lon="1.669100">
        <ele>1083.3</ele>
        <time>2019-11-09T08:15:49.000Z</time>
      </trkpt>
      <trkpt lat="42.158258" lon="1.668851">
        <ele>1085.1</ele>
        <time>2019-11-09T08:16:2.999Z</time>
      </trkpt>
      <trkpt lat="42.158304" lon="1.668615">
        <ele>1088.1</ele>
        <time>2019-11-09T08:16:22.999Z</time>
      </trkpt>
      <trkpt lat="42.158483" lon="1.668643">
        <ele>1091.2</ele>
        <time>2019-11-09T08:17:0.999Z</time>
      </trkpt>
      <trkpt lat="42.158649" lon="1.668744">
        <ele>1095.8</ele>
        <time>2019-11-09T08:17:32.999Z</time>
      </trkpt>
      <trkpt lat="42.158837" lon="1.668734">
        <ele>1100.8</ele>
        <time>2019-11-09T08:18:0.999Z</time>
      </trkpt>
      <trkpt lat="42.158922" lon="1.668952">
        <ele>1105.4</ele>
        <time>2019-11-09T08:18:29.999Z</time>
      </trkpt>
      <trkpt lat="42.158815" lon="1.669163">
        <ele>1106.7</ele>
        <time>2019-11-09T08:18:44.999Z</time>
      </trkpt>
      <trkpt lat="42.158722" lon="1.669380">
        <ele>1108.8</ele>
        <time>2019-11-09T08:18:58.999Z</time>
      </trkpt>
      <trkpt lat="42.158657" lon="1.669608">
        <ele>1111.2</ele>
        <time>2019-11-09T08:19:17.999Z</time>
      </trkpt>
      <trkpt lat="42.158612" lon="1.669848">
        <ele>1113.3</ele>
        <time>2019-11-09T08:19:35.999Z</time>
      </trkpt>
      <trkpt lat="42.158558" lon="1.670079">
        <ele>1116.7</ele>
        <time>2019-11-09T08:19:49.999Z</time>
      </trkpt>
      <trkpt lat="42.158659" lon="1.669854">
        <ele>1114.2</ele>
        <time>2019-11-09T08:23:28.999Z</time>
      </trkpt>
      <trkpt lat="42.158560" lon="1.670071">
        <ele>1116.8</ele>
        <time>2019-11-09T08:25:45.999Z</time>
      </trkpt>
      <trkpt lat="42.158507" lon="1.670308">
        <ele>1120.0</ele>
        <time>2019-11-09T08:27:0.999Z</time>
      </trkpt>
      <trkpt lat="42.158489" lon="1.670554">
        <ele>1122.2</ele>
        <time>2019-11-09T08:27:33.999Z</time>
      </trkpt>
      <trkpt lat="42.158448" lon="1.670792">
        <ele>1125.2</ele>
        <time>2019-11-09T08:27:50.999Z</time>
      </trkpt>
      <trkpt lat="42.158455" lon="1.671039">
        <ele>1128.9</ele>
        <time>2019-11-09T08:28:6.999Z</time>
      </trkpt>
      <trkpt lat="42.158466" lon="1.671282">
        <ele>1131.8</ele>
        <time>2019-11-09T08:28:26.999Z</time>
      </trkpt>
      <trkpt lat="42.158517" lon="1.671526">
        <ele>1134.3</ele>
        <time>2019-11-09T08:28:41.999Z</time>
      </trkpt>
      <trkpt lat="42.158457" lon="1.671755">
        <ele>1139.2</ele>
        <time>2019-11-09T08:29:7.999Z</time>
      </trkpt>
      <trkpt lat="42.158592" lon="1.671928">
        <ele>1143.1</ele>
        <time>2019-11-09T08:30:7.999Z</time>
      </trkpt>
      <trkpt lat="42.158779" lon="1.671903">
        <ele>1152.5</ele>
        <time>2019-11-09T08:32:33.999Z</time>
      </trkpt>
      <trkpt lat="42.158872" lon="1.671681">
        <ele>1157.6</ele>
        <time>2019-11-09T08:32:54.999Z</time>
      </trkpt>
      <trkpt lat="42.159045" lon="1.671605">
        <ele>1162.1</ele>
        <time>2019-11-09T08:33:16.999Z</time>
      </trkpt>
      <trkpt lat="42.159210" lon="1.671498">
        <ele>1167.7</ele>
        <time>2019-11-09T08:33:41.999Z</time>
      </trkpt>
      <trkpt lat="42.159302" lon="1.671281">
        <ele>1172.7</ele>
        <time>2019-11-09T08:34:20.999Z</time>
      </trkpt>
      <trkpt lat="42.159462" lon="1.671404">
        <ele>1177.7</ele>
        <time>2019-11-09T08:34:53.999Z</time>
      </trkpt>
      <trkpt lat="42.159508" lon="1.671650">
        <ele>1180.2</ele>
        <time>2019-11-09T08:35:13.999Z</time>
      </trkpt>
      <trkpt lat="42.159513" lon="1.671894">
        <ele>1182.6</ele>
        <time>2019-11-09T08:35:35.999Z</time>
      </trkpt>
      <trkpt lat="42.159660" lon="1.672035">
        <ele>1187.5</ele>
        <time>2019-11-09T08:36:6.999Z</time>
      </trkpt>
      <trkpt lat="42.159840" lon="1.672045">
        <ele>1190.3</ele>
        <time>2019-11-09T08:36:33.999Z</time>
      </trkpt>
      <trkpt lat="42.160014" lon="1.672109">
        <ele>1196.7</ele>
        <time>2019-11-09T08:37:24.999Z</time>
      </trkpt>
      <trkpt lat="42.160164" lon="1.672320">
        <ele>1202.1</ele>
        <time>2019-11-09T08:38:48.999Z</time>
      </trkpt>
      <trkpt lat="42.160297" lon="1.672150">
        <ele>1206.1</ele>
        <time>2019-11-09T08:39:5.999Z</time>
      </trkpt>
      <trkpt lat="42.160412" lon="1.672350">
        <ele>1210.9</ele>
        <time>2019-11-09T08:39:50.999Z</time>
      </trkpt>
      <trkpt lat="42.160482" lon="1.672584">
        <ele>1214.0</ele>
        <time>2019-11-09T08:40:9.999Z</time>
      </trkpt>
      <trkpt lat="42.160513" lon="1.672829">
        <ele>1216.5</ele>
        <time>2019-11-09T08:40:34.999Z</time>
      </trkpt>
      <trkpt lat="42.160491" lon="1.673071">
        <ele>1218.1</ele>
        <time>2019-11-09T08:41:46.999Z</time>
      </trkpt>
      <trkpt lat="42.160379" lon="1.673287">
        <ele>1219.6</ele>
        <time>2019-11-09T08:42:2.999Z</time>
      </trkpt>
      <trkpt lat="42.160266" lon="1.673483">
        <ele>1222.2</ele>
        <time>2019-11-09T08:43:18.999Z</time>
      </trkpt>
      <trkpt lat="42.160205" lon="1.673717">
        <ele>1222.4</ele>
        <time>2019-11-09T08:43:31.999Z</time>
      </trkpt>
      <trkpt lat="42.160194" lon="1.673965">
        <ele>1224.7</ele>
        <time>2019-11-09T08:43:49.999Z</time>
      </trkpt>
      <trkpt lat="42.160138" lon="1.674210">
        <ele>1226.6</ele>
        <time>2019-11-09T08:44:6.999Z</time>
      </trkpt>
      <trkpt lat="42.160131" lon="1.674462">
        <ele>1228.8</ele>
        <time>2019-11-09T08:44:25.999Z</time>
      </trkpt>
      <trkpt lat="42.160119" lon="1.674710">
        <ele>1230.5</ele>
        <time>2019-11-09T08:44:42.999Z</time>
      </trkpt>
      <trkpt lat="42.160109" lon="1.674953">
        <ele>1231.4</ele>
        <time>2019-11-09T08:44:56.999Z</time>
      </trkpt>
      <trkpt lat="42.160132" lon="1.675200">
        <ele>1233.3</ele>
        <time>2019-11-09T08:45:18.999Z</time>
      </trkpt>
      <trkpt lat="42.160105" lon="1.675445">
        <ele>1233.8</ele>
        <time>2019-11-09T08:45:47.999Z</time>
      </trkpt>
      <trkpt lat="42.159970" lon="1.675606">
        <ele>1231.4</ele>
        <time>2019-11-09T08:46:3.999Z</time>
      </trkpt>
      <trkpt lat="42.159785" lon="1.675661">
        <ele>1228.3</ele>
        <time>2019-11-09T08:46:19.999Z</time>
      </trkpt>
      <trkpt lat="42.159707" lon="1.675880">
        <ele>1227.2</ele>
        <time>2019-11-09T08:46:51.999Z</time>
      </trkpt>
      <trkpt lat="42.159871" lon="1.675984">
        <ele>1225.8</ele>
        <time>2019-11-09T09:03:13.000Z</time>
      </trkpt>
      <trkpt lat="42.160053" lon="1.676010">
        <ele>1221.5</ele>
        <time>2019-11-09T09:07:10.000Z</time>
      </trkpt>
      <trkpt lat="42.160231" lon="1.676057">
        <ele>1216.0</ele>
        <time>2019-11-09T09:07:30.000Z</time>
      </trkpt>
      <trkpt lat="42.160416" lon="1.676084">
        <ele>1209.5</ele>
        <time>2019-11-09T09:07:52.000Z</time>
      </trkpt>
      <trkpt lat="42.160587" lon="1.676171">
        <ele>1202.3</ele>
        <time>2019-11-09T09:08:11.000Z</time>
      </trkpt>
      <trkpt lat="42.160772" lon="1.676230">
        <ele>1194.8</ele>
        <time>2019-11-09T09:08:35.000Z</time>
      </trkpt>
      <trkpt lat="42.160944" lon="1.676321">
        <ele>1185.5</ele>
        <time>2019-11-09T09:09:34.000Z</time>
      </trkpt>
      <trkpt lat="42.161129" lon="1.676395">
        <ele>1180.7</ele>
        <time>2019-11-09T09:09:57.000Z</time>
      </trkpt>
      <trkpt lat="42.161291" lon="1.676263">
        <ele>1171.5</ele>
        <time>2019-11-09T09:10:37.000Z</time>
      </trkpt>
      <trkpt lat="42.161472" lon="1.676298">
        <ele>1169.5</ele>
        <time>2019-11-09T09:11:11.000Z</time>
      </trkpt>
      <trkpt lat="42.161655" lon="1.676295">
        <ele>1161.6</ele>
        <time>2019-11-09T09:11:36.000Z</time>
      </trkpt>
      <trkpt lat="42.161832" lon="1.676351">
        <ele>1155.1</ele>
        <time>2019-11-09T09:12:16.000Z</time>
      </trkpt>
      <trkpt lat="42.162015" lon="1.676384">
        <ele>1152.7</ele>
        <time>2019-11-09T09:12:38.000Z</time>
      </trkpt>
      <trkpt lat="42.162167" lon="1.676240">
        <ele>1146.7</ele>
        <time>2019-11-09T09:13:0.000Z</time>
      </trkpt>
      <trkpt lat="42.162310" lon="1.676088">
        <ele>1139.6</ele>
        <time>2019-11-09T09:13:25.000Z</time>
      </trkpt>
      <trkpt lat="42.162497" lon="1.676039">
        <ele>1135.7</ele>
        <time>2019-11-09T09:13:41.000Z</time>
      </trkpt>
      <trkpt lat="42.162670" lon="1.675928">
        <ele>1129.2</ele>
        <time>2019-11-09T09:13:58.000Z</time>
      </trkpt>
      <trkpt lat="42.162846" lon="1.675863">
        <ele>1119.7</ele>
        <time>2019-11-09T09:14:22.000Z</time>
      </trkpt>
      <trkpt lat="42.162987" lon="1.675703">
        <ele>1110.4</ele>
        <time>2019-11-09T09:14:53.000Z</time>
      </trkpt>
      <trkpt lat="42.163176" lon="1.675723">
        <ele>1107.5</ele>
        <time>2019-11-09T09:15:7.000Z</time>
      </trkpt>
      <trkpt lat="42.163352" lon="1.675776">
        <ele>1104.8</ele>
        <time>2019-11-09T09:15:23.000Z</time>
      </trkpt>
      <trkpt lat="42.163524" lon="1.675879">
        <ele>1101.2</ele>
        <time>2019-11-09T09:15:42.000Z</time>
      </trkpt>
      <trkpt lat="42.163666" lon="1.676041">
        <ele>1098.3</ele>
        <time>2019-11-09T09:16:2.000Z</time>
      </trkpt>
      <trkpt lat="42.163719" lon="1.676290">
        <ele>1096.3</ele>
        <time>2019-11-09T09:16:17.000Z</time>
      </trkpt>
      <trkpt lat="42.163900" lon="1.676332">
        <ele>1090.9</ele>
        <time>2019-11-09T09:17:10.000Z</time>
      </trkpt>
      <trkpt lat="42.164061" lon="1.676220">
        <ele>1083.9</ele>
        <time>2019-11-09T09:17:29.000Z</time>
      </trkpt>
      <trkpt lat="42.164186" lon="1.676029">
        <ele>1078.7</ele>
        <time>2019-11-09T09:17:45.000Z</time>
      </trkpt>
      <trkpt lat="42.164316" lon="1.675841">
        <ele>1070.5</ele>
        <time>2019-11-09T09:18:11.000Z</time>
      </trkpt>
      <trkpt lat="42.164455" lon="1.675685">
        <ele>1065.3</ele>
        <time>2019-11-09T09:18:28.000Z</time>
      </trkpt>
      <trkpt lat="42.164626" lon="1.675585">
        <ele>1060.7</ele>
        <time>2019-11-09T09:18:46.000Z</time>
      </trkpt>
      <trkpt lat="42.164733" lon="1.675389">
        <ele>1056.6</ele>
        <time>2019-11-09T09:19:16.000Z</time>
      </trkpt>
      <trkpt lat="42.164900" lon="1.675293">
        <ele>1051.3</ele>
        <time>2019-11-09T09:19:36.000Z</time>
      </trkpt>
      <trkpt lat="42.165051" lon="1.675142">
        <ele>1044.2</ele>
        <time>2019-11-09T09:19:59.999Z</time>
      </trkpt>
      <trkpt lat="42.165186" lon="1.674976">
        <ele>1038.7</ele>
        <time>2019-11-09T09:20:25.999Z</time>
      </trkpt>
      <trkpt lat="42.165366" lon="1.674973">
        <ele>1035.0</ele>
        <time>2019-11-09T09:20:42.999Z</time>
      </trkpt>
      <trkpt lat="42.165554" lon="1.674925">
        <ele>1033.0</ele>
        <time>2019-11-09T09:20:57.999Z</time>
      </trkpt>
      <trkpt lat="42.165736" lon="1.674989">
        <ele>1028.4</ele>
        <time>2019-11-09T09:21:45.999Z</time>
      </trkpt>
      <trkpt lat="42.165601" lon="1.675152">
        <ele>1030.6</ele>
        <time>2019-11-09T09:23:12.999Z</time>
      </trkpt>
      <trkpt lat="42.165508" lon="1.675361">
        <ele>1033.3</ele>
        <time>2019-11-09T09:23:34.999Z</time>
      </trkpt>
      <trkpt lat="42.165461" lon="1.675605">
        <ele>1037.6</ele>
        <time>2019-11-09T09:23:59.999Z</time>
      </trkpt>
      <trkpt lat="42.165355" lon="1.675812">
        <ele>1041.3</ele>
        <time>2019-11-09T09:24:23.999Z</time>
      </trkpt>
      <trkpt lat="42.165357" lon="1.676072">
        <ele>1041.4</ele>
        <time>2019-11-09T09:24:40.999Z</time>
      </trkpt>
      <trkpt lat="42.165203" lon="1.676198">
        <ele>1045.4</ele>
        <time>2019-11-09T09:25:3.999Z</time>
      </trkpt>
      <trkpt lat="42.165124" lon="1.676421">
        <ele>1049.8</ele>
        <time>2019-11-09T09:25:30.999Z</time>
      </trkpt>
      <trkpt lat="42.165122" lon="1.676668">
        <ele>1052.0</ele>
        <time>2019-11-09T09:25:56.999Z</time>
      </trkpt>
      <trkpt lat="42.165051" lon="1.676900">
        <ele>1055.2</ele>
        <time>2019-11-09T09:26:30.999Z</time>
      </trkpt>
      <trkpt lat="42.165070" lon="1.677142">
        <ele>1057.2</ele>
        <time>2019-11-09T09:26:59.999Z</time>
      </trkpt>
      <trkpt lat="42.164945" lon="1.677326">
        <ele>1061.1</ele>
        <time>2019-11-09T09:27:30.999Z</time>
      </trkpt>
      <trkpt lat="42.164782" lon="1.677431">
        <ele>1065.1</ele>
        <time>2019-11-09T09:27:47.999Z</time>
      </trkpt>
      <trkpt lat="42.164671" lon="1.677633">
        <ele>1068.7</ele>
        <time>2019-11-09T09:28:26.999Z</time>
      </trkpt>
      <trkpt lat="42.164682" lon="1.677876">
        <ele>1071.5</ele>
        <time>2019-11-09T09:28:53.999Z</time>
      </trkpt>
      <trkpt lat="42.164742" lon="1.678105">
        <ele>1073.1</ele>
        <time>2019-11-09T09:29:33.999Z</time>
      </trkpt>
      <trkpt lat="42.164902" lon="1.678225">
        <ele>1070.2</ele>
        <time>2019-11-09T09:30:4.999Z</time>
      </trkpt>
      <trkpt lat="42.164987" lon="1.678451">
        <ele>1069.0</ele>
        <time>2019-11-09T09:30:20.999Z</time>
      </trkpt>
      <trkpt lat="42.165008" lon="1.678696">
        <ele>1069.7</ele>
        <time>2019-11-09T09:30:42.999Z</time>
      </trkpt>
      <trkpt lat="42.164921" lon="1.678923">
        <ele>1069.5</ele>
        <time>2019-11-09T09:31:0.999Z</time>
      </trkpt>
      <trkpt lat="42.164740" lon="1.678932">
        <ele>1076.3</ele>
        <time>2019-11-09T09:31:42.999Z</time>
      </trkpt>
      <trkpt lat="42.164557" lon="1.678907">
        <ele>1082.3</ele>
        <time>2019-11-09T09:32:12.999Z</time>
      </trkpt>
      <trkpt lat="42.164377" lon="1.678904">
        <ele>1086.8</ele>
        <time>2019-11-09T09:32:31.999Z</time>
      </trkpt>
      <trkpt lat="42.164199" lon="1.678866">
        <ele>1092.1</ele>
        <time>2019-11-09T09:32:52.999Z</time>
      </trkpt>
      <trkpt lat="42.164025" lon="1.678940">
        <ele>1096.1</ele>
        <time>2019-11-09T09:33:15.999Z</time>
      </trkpt>
      <trkpt lat="42.163853" lon="1.678850">
        <ele>1100.6</ele>
        <time>2019-11-09T09:33:35.999Z</time>
      </trkpt>
      <trkpt lat="42.163682" lon="1.678962">
        <ele>1104.9</ele>
        <time>2019-11-09T09:33:58.999Z</time>
      </trkpt>
      <trkpt lat="42.163666" lon="1.679207">
        <ele>1108.4</ele>
        <time>2019-11-09T09:34:48.999Z</time>
      </trkpt>
      <trkpt lat="42.163606" lon="1.679439">
        <ele>1110.4</ele>
        <time>2019-11-09T09:35:12.999Z</time>
      </trkpt>
      <trkpt lat="42.163470" lon="1.679604">
        <ele>1114.7</ele>
        <time>2019-11-09T09:35:28.999Z</time>
      </trkpt>
      <trkpt lat="42.163362" lon="1.679800">
        <ele>1118.1</ele>
        <time>2019-11-09T09:35:51.999Z</time>
      </trkpt>
      <trkpt lat="42.163207" lon="1.679925">
        <ele>1123.4</ele>
        <time>2019-11-09T09:36:12.999Z</time>
      </trkpt>
      <trkpt lat="42.163159" lon="1.680164">
        <ele>1126.8</ele>
        <time>2019-11-09T09:36:33.999Z</time>
      </trkpt>
      <trkpt lat="42.163225" lon="1.680400">
        <ele>1128.1</ele>
        <time>2019-11-09T09:36:49.999Z</time>
      </trkpt>
      <trkpt lat="42.163130" lon="1.680607">
        <ele>1130.7</ele>
        <time>2019-11-09T09:37:12.999Z</time>
      </trkpt>
      <trkpt lat="42.163021" lon="1.680810">
        <ele>1134.2</ele>
        <time>2019-11-09T09:37:30.999Z</time>
      </trkpt>
      <trkpt lat="42.162994" lon="1.681056">
        <ele>1137.5</ele>
        <time>2019-11-09T09:37:49.999Z</time>
      </trkpt>
      <trkpt lat="42.162905" lon="1.681278">
        <ele>1142.0</ele>
        <time>2019-11-09T09:38:16.999Z</time>
      </trkpt>
      <trkpt lat="42.162727" lon="1.681352">
        <ele>1147.6</ele>
        <time>2019-11-09T09:38:40.999Z</time>
      </trkpt>
      <trkpt lat="42.162553" lon="1.681420">
        <ele>1152.3</ele>
        <time>2019-11-09T09:39:13.999Z</time>
      </trkpt>
      <trkpt lat="42.162369" lon="1.681475">
        <ele>1157.7</ele>
        <time>2019-11-09T09:39:33.999Z</time>
      </trkpt>
      <trkpt lat="42.162286" lon="1.681693">
        <ele>1162.1</ele>
        <time>2019-11-09T09:39:55.999Z</time>
      </trkpt>
      <trkpt lat="42.162368" lon="1.681917">
        <ele>1159.5</ele>
        <time>2019-11-09T09:41:36.999Z</time>
      </trkpt>
      <trkpt lat="42.162446" lon="1.682140">
        <ele>1158.1</ele>
        <time>2019-11-09T09:41:54.999Z</time>
      </trkpt>
      <trkpt lat="42.162509" lon="1.682374">
        <ele>1155.2</ele>
        <time>2019-11-09T09:43:0.999Z</time>
      </trkpt>
      <trkpt lat="42.162624" lon="1.682571">
        <ele>1156.0</ele>
        <time>2019-11-09T09:43:27.999Z</time>
      </trkpt>
      <trkpt lat="42.162644" lon="1.682815">
        <ele>1154.0</ele>
        <time>2019-11-09T09:43:53.999Z</time>
      </trkpt>
      <trkpt lat="42.162726" lon="1.683044">
        <ele>1150.0</ele>
        <time>2019-11-09T09:44:14.999Z</time>
      </trkpt>
      <trkpt lat="42.162729" lon="1.683289">
        <ele>1150.1</ele>
        <time>2019-11-09T09:44:35.999Z</time>
      </trkpt>
      <trkpt lat="42.162880" lon="1.683441">
        <ele>1154.7</ele>
        <time>2019-11-09T09:47:1.999Z</time>
      </trkpt>
      <trkpt lat="42.162939" lon="1.683682">
        <ele>1150.4</ele>
        <time>2019-11-09T09:47:20.999Z</time>
      </trkpt>
      <trkpt lat="42.163061" lon="1.683880">
        <ele>1148.2</ele>
        <time>2019-11-09T09:47:48.999Z</time>
      </trkpt>
      <trkpt lat="42.163095" lon="1.684126">
        <ele>1147.4</ele>
        <time>2019-11-09T09:48:5.999Z</time>
      </trkpt>
      <trkpt lat="42.163189" lon="1.684343">
        <ele>1145.4</ele>
        <time>2019-11-09T09:48:27.999Z</time>
      </trkpt>
      <trkpt lat="42.163354" lon="1.684446">
        <ele>1143.3</ele>
        <time>2019-11-09T09:48:49.999Z</time>
      </trkpt>
      <trkpt lat="42.163534" lon="1.684461">
        <ele>1139.7</ele>
        <time>2019-11-09T09:49:10.999Z</time>
      </trkpt>
      <trkpt lat="42.163647" lon="1.684656">
        <ele>1136.5</ele>
        <time>2019-11-09T09:49:36.999Z</time>
      </trkpt>
      <trkpt lat="42.163793" lon="1.684814">
        <ele>1133.0</ele>
        <time>2019-11-09T09:49:56.999Z</time>
      </trkpt>
      <trkpt lat="42.163979" lon="1.684822">
        <ele>1128.6</ele>
        <time>2019-11-09T09:50:21.999Z</time>
      </trkpt>
      <trkpt lat="42.164160" lon="1.684828">
        <ele>1124.2</ele>
        <time>2019-11-09T09:50:42.999Z</time>
      </trkpt>
      <trkpt lat="42.164340" lon="1.684909">
        <ele>1120.2</ele>
        <time>2019-11-09T09:51:6.999Z</time>
      </trkpt>
      <trkpt lat="42.164477" lon="1.685068">
        <ele>1116.2</ele>
        <time>2019-11-09T09:51:31.999Z</time>
      </trkpt>
      <trkpt lat="42.164496" lon="1.685314">
        <ele>1117.4</ele>
        <time>2019-11-09T09:51:55.999Z</time>
      </trkpt>
      <trkpt lat="42.164553" lon="1.685558">
        <ele>1118.7</ele>
        <time>2019-11-09T09:52:16.999Z</time>
      </trkpt>
      <trkpt lat="42.164667" lon="1.685747">
        <ele>1118.0</ele>
        <time>2019-11-09T09:52:34.999Z</time>
      </trkpt>
      <trkpt lat="42.164778" lon="1.685941">
        <ele>1117.8</ele>
        <time>2019-11-09T09:52:54.000Z</time>
      </trkpt>
      <trkpt lat="42.164901" lon="1.686121">
        <ele>1115.3</ele>
        <time>2019-11-09T09:53:11.000Z</time>
      </trkpt>
      <trkpt lat="42.165012" lon="1.686324">
        <ele>1114.6</ele>
        <time>2019-11-09T09:53:29.000Z</time>
      </trkpt>
      <trkpt lat="42.165139" lon="1.686508">
        <ele>1113.1</ele>
        <time>2019-11-09T09:53:49.000Z</time>
      </trkpt>
      <trkpt lat="42.165308" lon="1.686613">
        <ele>1110.1</ele>
        <time>2019-11-09T09:54:15.000Z</time>
      </trkpt>
      <trkpt lat="42.165488" lon="1.686577">
        <ele>1108.2</ele>
        <time>2019-11-09T09:54:37.000Z</time>
      </trkpt>
      <trkpt lat="42.165667" lon="1.686496">
        <ele>1100.4</ele>
        <time>2019-11-09T09:55:26.000Z</time>
      </trkpt>
      <trkpt lat="42.165834" lon="1.686380">
        <ele>1096.6</ele>
        <time>2019-11-09T09:55:43.000Z</time>
      </trkpt>
      <trkpt lat="42.166014" lon="1.686320">
        <ele>1094.6</ele>
        <time>2019-11-09T09:56:4.000Z</time>
      </trkpt>
      <trkpt lat="42.166182" lon="1.686408">
        <ele>1091.5</ele>
        <time>2019-11-09T09:56:30.000Z</time>
      </trkpt>
      <trkpt lat="42.166357" lon="1.686490">
        <ele>1088.2</ele>
        <time>2019-11-09T09:57:1.000Z</time>
      </trkpt>
      <trkpt lat="42.166379" lon="1.686736">
        <ele>1087.3</ele>
        <time>2019-11-09T09:57:20.000Z</time>
      </trkpt>
      <trkpt lat="42.166545" lon="1.686859">
        <ele>1082.1</ele>
        <time>2019-11-09T09:57:55.000Z</time>
      </trkpt>
      <trkpt lat="42.166722" lon="1.686780">
        <ele>1077.8</ele>
        <time>2019-11-09T09:58:23.000Z</time>
      </trkpt>
      <trkpt lat="42.166899" lon="1.686695">
        <ele>1074.2</ele>
        <time>2019-11-09T09:58:42.000Z</time>
      </trkpt>
      <trkpt lat="42.166951" lon="1.686929">
        <ele>1075.7</ele>
        <time>2019-11-09T09:59:22.000Z</time>
      </trkpt>
      <trkpt lat="42.166921" lon="1.687182">
        <ele>1076.3</ele>
        <time>2019-11-09T09:59:49.000Z</time>
      </trkpt>
      <trkpt lat="42.166930" lon="1.687441">
        <ele>1079.8</ele>
        <time>2019-11-09T10:00:14.000Z</time>
      </trkpt>
      <trkpt lat="42.166954" lon="1.687692">
        <ele>1081.0</ele>
        <time>2019-11-09T10:00:30.000Z</time>
      </trkpt>
      <trkpt lat="42.167110" lon="1.687816">
        <ele>1081.3</ele>
        <time>2019-11-09T10:01:3.000Z</time>
      </trkpt>
      <trkpt lat="42.167295" lon="1.687766">
        <ele>1077.9</ele>
        <time>2019-11-09T10:01:26.000Z</time>
      </trkpt>
      <trkpt lat="42.167476" lon="1.687721">
        <ele>1074.3</ele>
        <time>2019-11-09T10:02:4.000Z</time>
      </trkpt>
      <trkpt lat="42.167653" lon="1.687639">
        <ele>1070.4</ele>
        <time>2019-11-09T10:02:20.000Z</time>
      </trkpt>
      <trkpt lat="42.167831" lon="1.687589">
        <ele>1066.8</ele>
        <time>2019-11-09T10:03:7.000Z</time>
      </trkpt>
      <trkpt lat="42.167972" lon="1.687751">
        <ele>1061.9</ele>
        <time>2019-11-09T10:03:22.000Z</time>
      </trkpt>
      <trkpt lat="42.168154" lon="1.687796">
        <ele>1060.6</ele>
        <time>2019-11-09T10:03:40.000Z</time>
      </trkpt>
      <trkpt lat="42.168269" lon="1.687604">
        <ele>1054.6</ele>
        <time>2019-11-09T10:04:13.000Z</time>
      </trkpt>
      <trkpt lat="42.168405" lon="1.687772">
        <ele>1053.8</ele>
        <time>2019-11-09T10:04:41.000Z</time>
      </trkpt>
      <trkpt lat="42.168390" lon="1.688036">
        <ele>1057.0</ele>
        <time>2019-11-09T10:04:55.000Z</time>
      </trkpt>
      <trkpt lat="42.168359" lon="1.688279">
        <ele>1057.6</ele>
        <time>2019-11-09T10:05:15.000Z</time>
      </trkpt>
      <trkpt lat="42.168296" lon="1.688521">
        <ele>1061.5</ele>
        <time>2019-11-09T10:05:47.000Z</time>
      </trkpt>
      <trkpt lat="42.168206" lon="1.688740">
        <ele>1067.3</ele>
        <time>2019-11-09T10:06:9.000Z</time>
      </trkpt>
      <trkpt lat="42.168135" lon="1.688970">
        <ele>1069.6</ele>
        <time>2019-11-09T10:06:25.000Z</time>
      </trkpt>
      <trkpt lat="42.168025" lon="1.689175">
        <ele>1072.3</ele>
        <time>2019-11-09T10:06:42.000Z</time>
      </trkpt>
      <trkpt lat="42.168163" lon="1.689336">
        <ele>1074.1</ele>
        <time>2019-11-09T10:06:59.000Z</time>
      </trkpt>
      <trkpt lat="42.168329" lon="1.689430">
        <ele>1072.0</ele>
        <time>2019-11-09T10:07:19.000Z</time>
      </trkpt>
      <trkpt lat="42.168515" lon="1.689471">
        <ele>1070.4</ele>
        <time>2019-11-09T10:07:38.000Z</time>
      </trkpt>
      <trkpt lat="42.168562" lon="1.689706">
        <ele>1072.1</ele>
        <time>2019-11-09T10:08:4.000Z</time>
      </trkpt>
      <trkpt lat="42.168512" lon="1.689957">
        <ele>1073.3</ele>
        <time>2019-11-09T10:08:19.000Z</time>
      </trkpt>
      <trkpt lat="42.168570" lon="1.690194">
        <ele>1073.4</ele>
        <time>2019-11-09T10:08:37.000Z</time>
      </trkpt>
      <trkpt lat="42.168625" lon="1.690445">
        <ele>1073.6</ele>
        <time>2019-11-09T10:09:6.000Z</time>
      </trkpt>
      <trkpt lat="42.168702" lon="1.690672">
        <ele>1077.0</ele>
        <time>2019-11-09T10:09:25.000Z</time>
      </trkpt>
      <trkpt lat="42.168753" lon="1.690915">
        <ele>1077.6</ele>
        <time>2019-11-09T10:09:52.000Z</time>
      </trkpt>
      <trkpt lat="42.168753" lon="1.691159">
        <ele>1081.0</ele>
        <time>2019-11-09T10:10:12.000Z</time>
      </trkpt>
      <trkpt lat="42.168697" lon="1.691403">
        <ele>1086.0</ele>
        <time>2019-11-09T10:10:25.000Z</time>
      </trkpt>
      <trkpt lat="42.168788" lon="1.691622">
        <ele>1086.6</ele>
        <time>2019-11-09T10:10:41.000Z</time>
      </trkpt>
      <trkpt lat="42.168904" lon="1.691809">
        <ele>1086.5</ele>
        <time>2019-11-09T10:10:57.000Z</time>
      </trkpt>
      <trkpt lat="42.168933" lon="1.692053">
        <ele>1086.1</ele>
        <time>2019-11-09T10:11:16.000Z</time>
      </trkpt>
      <trkpt lat="42.169034" lon="1.692269">
        <ele>1088.5</ele>
        <time>2019-11-09T10:11:32.000Z</time>
      </trkpt>
      <trkpt lat="42.169120" lon="1.692483">
        <ele>1090.0</ele>
        <time>2019-11-09T10:11:48.000Z</time>
      </trkpt>
      <trkpt lat="42.169140" lon="1.692731">
        <ele>1091.5</ele>
        <time>2019-11-09T10:12:10.000Z</time>
      </trkpt>
      <trkpt lat="42.169105" lon="1.692981">
        <ele>1097.4</ele>
        <time>2019-11-09T10:12:30.000Z</time>
      </trkpt>
      <trkpt lat="42.169400" lon="1.693209">
        <ele>1103.9</ele>
        <time>2019-11-09T10:14:40.000Z</time>
      </trkpt>
      <trkpt lat="42.169591" lon="1.693280">
        <ele>1100.6</ele>
        <time>2019-11-09T10:14:47.000Z</time>
      </trkpt>
      <trkpt lat="42.169774" lon="1.693286">
        <ele>1099.0</ele>
        <time>2019-11-09T10:14:59.000Z</time>
      </trkpt>
      <trkpt lat="42.169766" lon="1.693210">
        <ele>1100.4</ele>
        <time>2019-11-09T10:15:49.000Z</time>
      </trkpt>
      <trkpt lat="42.169746" lon="1.693221">
        <ele>1089.9</ele>
        <time>2019-11-09T10:23:23.000Z</time>
      </trkpt>
      <trkpt lat="42.169928" lon="1.693289">
        <ele>1086.9</ele>
        <time>2019-11-09T10:23:45.000Z</time>
      </trkpt>
      <trkpt lat="42.170099" lon="1.693366">
        <ele>1083.1</ele>
        <time>2019-11-09T10:24:17.000Z</time>
      </trkpt>
      <trkpt lat="42.170278" lon="1.693329">
        <ele>1078.9</ele>
        <time>2019-11-09T10:24:44.999Z</time>
      </trkpt>
      <trkpt lat="42.170320" lon="1.693573">
        <ele>1081.8</ele>
        <time>2019-11-09T10:25:48.999Z</time>
      </trkpt>
      <trkpt lat="42.170392" lon="1.693796">
        <ele>1081.5</ele>
        <time>2019-11-09T10:26:9.999Z</time>
      </trkpt>
      <trkpt lat="42.170454" lon="1.694030">
        <ele>1084.7</ele>
        <time>2019-11-09T10:26:30.999Z</time>
      </trkpt>
      <trkpt lat="42.170416" lon="1.694271">
        <ele>1087.6</ele>
        <time>2019-11-09T10:26:55.999Z</time>
      </trkpt>
      <trkpt lat="42.170512" lon="1.694485">
        <ele>1089.0</ele>
        <time>2019-11-09T10:27:15.999Z</time>
      </trkpt>
      <trkpt lat="42.170614" lon="1.694692">
        <ele>1090.3</ele>
        <time>2019-11-09T10:27:35.999Z</time>
      </trkpt>
      <trkpt lat="42.170752" lon="1.694868">
        <ele>1089.6</ele>
        <time>2019-11-09T10:27:54.999Z</time>
      </trkpt>
      <trkpt lat="42.170807" lon="1.695100">
        <ele>1090.9</ele>
        <time>2019-11-09T10:28:12.999Z</time>
      </trkpt>
      <trkpt lat="42.170932" lon="1.695283">
        <ele>1091.6</ele>
        <time>2019-11-09T10:28:36.999Z</time>
      </trkpt>
      <trkpt lat="42.171082" lon="1.695447">
        <ele>1090.3</ele>
        <time>2019-11-09T10:29:1.999Z</time>
      </trkpt>
      <trkpt lat="42.171234" lon="1.695582">
        <ele>1084.8</ele>
        <time>2019-11-09T10:29:37.999Z</time>
      </trkpt>
      <trkpt lat="42.171322" lon="1.695799">
        <ele>1087.5</ele>
        <time>2019-11-09T10:30:9.999Z</time>
      </trkpt>
      <trkpt lat="42.171347" lon="1.696044">
        <ele>1090.1</ele>
        <time>2019-11-09T10:30:29.999Z</time>
      </trkpt>
      <trkpt lat="42.171521" lon="1.696113">
        <ele>1089.8</ele>
        <time>2019-11-09T10:30:48.999Z</time>
      </trkpt>
      <trkpt lat="42.171642" lon="1.696295">
        <ele>1088.8</ele>
        <time>2019-11-09T10:31:8.999Z</time>
      </trkpt>
      <trkpt lat="42.171700" lon="1.696527">
        <ele>1089.0</ele>
        <time>2019-11-09T10:31:26.999Z</time>
      </trkpt>
      <trkpt lat="42.171877" lon="1.696617">
        <ele>1087.5</ele>
        <time>2019-11-09T10:31:46.999Z</time>
      </trkpt>
      <trkpt lat="42.172053" lon="1.696544">
        <ele>1084.1</ele>
        <time>2019-11-09T10:32:11.999Z</time>
      </trkpt>
      <trkpt lat="42.172230" lon="1.696471">
        <ele>1078.4</ele>
        <time>2019-11-09T10:32:30.999Z</time>
      </trkpt>
      <trkpt lat="42.172410" lon="1.696446">
        <ele>1074.8</ele>
        <time>2019-11-09T10:32:53.999Z</time>
      </trkpt>
      <trkpt lat="42.172593" lon="1.696488">
        <ele>1067.2</ele>
        <time>2019-11-09T10:33:25.999Z</time>
      </trkpt>
      <trkpt lat="42.172773" lon="1.696558">
        <ele>1066.9</ele>
        <time>2019-11-09T10:33:50.999Z</time>
      </trkpt>
      <trkpt lat="42.172932" lon="1.696688">
        <ele>1066.4</ele>
        <time>2019-11-09T10:34:11.999Z</time>
      </trkpt>
      <trkpt lat="42.173114" lon="1.696678">
        <ele>1064.0</ele>
        <time>2019-11-09T10:34:27.999Z</time>
      </trkpt>
      <trkpt lat="42.173166" lon="1.696913">
        <ele>1063.7</ele>
        <time>2019-11-09T10:34:42.999Z</time>
      </trkpt>
      <trkpt lat="42.173255" lon="1.697126">
        <ele>1063.5</ele>
        <time>2019-11-09T10:35:2.999Z</time>
      </trkpt>
      <trkpt lat="42.173418" lon="1.697007">
        <ele>1059.6</ele>
        <time>2019-11-09T10:35:21.999Z</time>
      </trkpt>
      <trkpt lat="42.173541" lon="1.696829">
        <ele>1056.3</ele>
        <time>2019-11-09T10:35:43.999Z</time>
      </trkpt>
      <trkpt lat="42.173709" lon="1.696731">
        <ele>1050.4</ele>
        <time>2019-11-09T10:36:8.999Z</time>
      </trkpt>
      <trkpt lat="42.173660" lon="1.696986">
        <ele>1049.8</ele>
        <time>2019-11-09T10:36:46.999Z</time>
      </trkpt>
      <trkpt lat="42.173657" lon="1.697234">
        <ele>1050.4</ele>
        <time>2019-11-09T10:37:6.999Z</time>
      </trkpt>
      <trkpt lat="42.173712" lon="1.697466">
        <ele>1053.2</ele>
        <time>2019-11-09T10:37:24.999Z</time>
      </trkpt>
      <trkpt lat="42.173852" lon="1.697622">
        <ele>1054.3</ele>
        <time>2019-11-09T10:37:39.999Z</time>
      </trkpt>
      <trkpt lat="42.174036" lon="1.697629">
        <ele>1053.7</ele>
        <time>2019-11-09T10:38:9.999Z</time>
      </trkpt>
      <trkpt lat="42.174217" lon="1.697626">
        <ele>1051.7</ele>
        <time>2019-11-09T10:38:27.999Z</time>
      </trkpt>
      <trkpt lat="42.174353" lon="1.697786">
        <ele>1050.4</ele>
        <time>2019-11-09T10:38:49.999Z</time>
      </trkpt>
      <trkpt lat="42.174535" lon="1.697793">
        <ele>1048.8</ele>
        <time>2019-11-09T10:39:13.999Z</time>
      </trkpt>
      <trkpt lat="42.174692" lon="1.697926">
        <ele>1046.7</ele>
        <time>2019-11-09T10:39:51.999Z</time>
      </trkpt>
      <trkpt lat="42.174878" lon="1.697947">
        <ele>1042.5</ele>
        <time>2019-11-09T10:40:36.999Z</time>
      </trkpt>
      <trkpt lat="42.175015" lon="1.698106">
        <ele>1043.5</ele>
        <time>2019-11-09T10:40:55.999Z</time>
      </trkpt>
      <trkpt lat="42.175195" lon="1.698128">
        <ele>1040.6</ele>
        <time>2019-11-09T10:41:25.999Z</time>
      </trkpt>
      <trkpt lat="42.175380" lon="1.698093">
        <ele>1038.2</ele>
        <time>2019-11-09T10:42:6.999Z</time>
      </trkpt>
      <trkpt lat="42.175548" lon="1.698003">
        <ele>1032.3</ele>
        <time>2019-11-09T10:42:32.999Z</time>
      </trkpt>
      <trkpt lat="42.175810" lon="1.698091">
        <ele>1039.5</ele>
        <time>2019-11-09T10:50:13.999Z</time>
      </trkpt>
      <trkpt lat="42.175991" lon="1.698014">
        <ele>1038.7</ele>
        <time>2019-11-09T10:54:7.999Z</time>
      </trkpt>
      <trkpt lat="42.176021" lon="1.697952">
        <ele>1032.8</ele>
        <time>2019-11-09T10:57:29.000Z</time>
      </trkpt>
      <trkpt lat="42.176161" lon="1.697794">
        <ele>1047.4</ele>
        <time>2019-11-09T10:58:16.000Z</time>
      </trkpt>
      <trkpt lat="42.176285" lon="1.697617">
        <ele>1048.2</ele>
        <time>2019-11-09T10:58:35.000Z</time>
      </trkpt>
      <trkpt lat="42.176431" lon="1.697474">
        <ele>1049.7</ele>
        <time>2019-11-09T10:59:3.000Z</time>
      </trkpt>
      <trkpt lat="42.176611" lon="1.697417">
        <ele>1050.2</ele>
        <time>2019-11-09T10:59:28.000Z</time>
      </trkpt>
      <trkpt lat="42.176774" lon="1.697310">
        <ele>1049.5</ele>
        <time>2019-11-09T10:59:47.000Z</time>
      </trkpt>
      <trkpt lat="42.176947" lon="1.697235">
        <ele>1039.7</ele>
        <time>2019-11-09T11:02:24.000Z</time>
      </trkpt>
      <trkpt lat="42.176970" lon="1.697358">
        <ele>1066.2</ele>
        <time>2019-11-09T11:16:15.000Z</time>
      </trkpt>
      <trkpt lat="42.176943" lon="1.697610">
        <ele>1055.6</ele>
        <time>2019-11-09T11:17:55.000Z</time>
      </trkpt>
      <trkpt lat="42.176780" lon="1.697732">
        <ele>1055.9</ele>
        <time>2019-11-09T11:18:54.000Z</time>
      </trkpt>
      <trkpt lat="42.176618" lon="1.697839">
        <ele>1059.7</ele>
        <time>2019-11-09T11:19:11.000Z</time>
      </trkpt>
      <trkpt lat="42.176467" lon="1.697974">
        <ele>1064.4</ele>
        <time>2019-11-09T11:19:55.000Z</time>
      </trkpt>
      <trkpt lat="42.176298" lon="1.698071">
        <ele>1068.6</ele>
        <time>2019-11-09T11:20:19.000Z</time>
      </trkpt>
      <trkpt lat="42.176190" lon="1.698272">
        <ele>1071.0</ele>
        <time>2019-11-09T11:20:40.000Z</time>
      </trkpt>
      <trkpt lat="42.176046" lon="1.698416">
        <ele>1068.9</ele>
        <time>2019-11-09T11:21:16.000Z</time>
      </trkpt>
      <trkpt lat="42.175866" lon="1.698408">
        <ele>1060.5</ele>
        <time>2019-11-09T11:22:54.000Z</time>
      </trkpt>
      <trkpt lat="42.175685" lon="1.698365">
        <ele>1047.1</ele>
        <time>2019-11-09T11:24:48.999Z</time>
      </trkpt>
      <trkpt lat="42.175506" lon="1.698426">
        <ele>1043.7</ele>
        <time>2019-11-09T11:25:35.999Z</time>
      </trkpt>
      <trkpt lat="42.175314" lon="1.698439">
        <ele>1041.6</ele>
        <time>2019-11-09T11:25:54.999Z</time>
      </trkpt>
      <trkpt lat="42.175134" lon="1.698487">
        <ele>1038.5</ele>
        <time>2019-11-09T11:26:10.999Z</time>
      </trkpt>
      <trkpt lat="42.174953" lon="1.698538">
        <ele>1037.7</ele>
        <time>2019-11-09T11:26:30.999Z</time>
      </trkpt>
      <trkpt lat="42.174770" lon="1.698507">
        <ele>1036.3</ele>
        <time>2019-11-09T11:26:48.999Z</time>
      </trkpt>
      <trkpt lat="42.174584" lon="1.698498">
        <ele>1036.6</ele>
        <time>2019-11-09T11:27:6.999Z</time>
      </trkpt>
      <trkpt lat="42.174438" lon="1.698346">
        <ele>1036.4</ele>
        <time>2019-11-09T11:27:28.999Z</time>
      </trkpt>
      <trkpt lat="42.174258" lon="1.698302">
        <ele>1035.1</ele>
        <time>2019-11-09T11:27:57.999Z</time>
      </trkpt>
      <trkpt lat="42.174069" lon="1.698293">
        <ele>1032.1</ele>
        <time>2019-11-09T11:28:15.999Z</time>
      </trkpt>
      <trkpt lat="42.173888" lon="1.698253">
        <ele>1031.1</ele>
        <time>2019-11-09T11:28:31.999Z</time>
      </trkpt>
      <trkpt lat="42.173699" lon="1.698242">
        <ele>1029.8</ele>
        <time>2019-11-09T11:28:51.999Z</time>
      </trkpt>
      <trkpt lat="42.173517" lon="1.698220">
        <ele>1031.3</ele>
        <time>2019-11-09T11:29:7.999Z</time>
      </trkpt>
      <trkpt lat="42.173354" lon="1.698113">
        <ele>1032.4</ele>
        <time>2019-11-09T11:29:57.999Z</time>
      </trkpt>
      <trkpt lat="42.173177" lon="1.698184">
        <ele>1034.2</ele>
        <time>2019-11-09T11:30:22.999Z</time>
      </trkpt>
      <trkpt lat="42.173002" lon="1.698288">
        <ele>1030.5</ele>
        <time>2019-11-09T11:34:56.999Z</time>
      </trkpt>
      <trkpt lat="42.173079" lon="1.698064">
        <ele>1033.7</ele>
        <time>2019-11-09T11:37:54.999Z</time>
      </trkpt>
      <trkpt lat="42.172989" lon="1.697853">
        <ele>1033.4</ele>
        <time>2019-11-09T11:38:18.999Z</time>
      </trkpt>
      <trkpt lat="42.172846" lon="1.697698">
        <ele>1033.0</ele>
        <time>2019-11-09T11:38:54.999Z</time>
      </trkpt>
      <trkpt lat="42.172707" lon="1.697542">
        <ele>1028.2</ele>
        <time>2019-11-09T11:39:29.999Z</time>
      </trkpt>
      <trkpt lat="42.172643" lon="1.697315">
        <ele>1025.2</ele>
        <time>2019-11-09T11:40:23.999Z</time>
      </trkpt>
      <trkpt lat="42.172479" lon="1.697211">
        <ele>1026.6</ele>
        <time>2019-11-09T11:40:45.999Z</time>
      </trkpt>
      <trkpt lat="42.172298" lon="1.697203">
        <ele>1029.5</ele>
        <time>2019-11-09T11:41:13.999Z</time>
      </trkpt>
      <trkpt lat="42.172141" lon="1.697331">
        <ele>1031.3</ele>
        <time>2019-11-09T11:41:26.999Z</time>
      </trkpt>
      <trkpt lat="42.172006" lon="1.697493">
        <ele>1033.2</ele>
        <time>2019-11-09T11:42:19.999Z</time>
      </trkpt>
      <trkpt lat="42.171816" lon="1.697501">
        <ele>1034.2</ele>
        <time>2019-11-09T11:42:40.999Z</time>
      </trkpt>
      <trkpt lat="42.171628" lon="1.697534">
        <ele>1032.2</ele>
        <time>2019-11-09T11:42:57.999Z</time>
      </trkpt>
      <trkpt lat="42.171458" lon="1.697449">
        <ele>1030.1</ele>
        <time>2019-11-09T11:43:24.999Z</time>
      </trkpt>
      <trkpt lat="42.171304" lon="1.697575">
        <ele>1025.1</ele>
        <time>2019-11-09T11:44:23.999Z</time>
      </trkpt>
      <trkpt lat="42.171156" lon="1.697432">
        <ele>1029.8</ele>
        <time>2019-11-09T11:45:6.999Z</time>
      </trkpt>
      <trkpt lat="42.170976" lon="1.697406">
        <ele>1023.2</ele>
        <time>2019-11-09T11:46:30.999Z</time>
      </trkpt>
      <trkpt lat="42.170807" lon="1.697295">
        <ele>1020.4</ele>
        <time>2019-11-09T11:47:13.999Z</time>
      </trkpt>
      <trkpt lat="42.170716" lon="1.697080">
        <ele>1023.0</ele>
        <time>2019-11-09T11:47:40.999Z</time>
      </trkpt>
      <trkpt lat="42.170571" lon="1.696897">
        <ele>1028.1</ele>
        <time>2019-11-09T11:48:14.999Z</time>
      </trkpt>
      <trkpt lat="42.170446" lon="1.696710">
        <ele>1028.8</ele>
        <time>2019-11-09T11:48:29.999Z</time>
      </trkpt>
      <trkpt lat="42.170348" lon="1.696502">
        <ele>1023.7</ele>
        <time>2019-11-09T11:48:57.999Z</time>
      </trkpt>
      <trkpt lat="42.170240" lon="1.696296">
        <ele>1020.1</ele>
        <time>2019-11-09T11:49:14.999Z</time>
      </trkpt>
      <trkpt lat="42.170075" lon="1.696160">
        <ele>1022.7</ele>
        <time>2019-11-09T11:49:40.999Z</time>
      </trkpt>
      <trkpt lat="42.169906" lon="1.696066">
        <ele>1024.5</ele>
        <time>2019-11-09T11:50:3.999Z</time>
      </trkpt>
      <trkpt lat="42.169737" lon="1.695946">
        <ele>1025.0</ele>
        <time>2019-11-09T11:50:28.999Z</time>
      </trkpt>
      <trkpt lat="42.169571" lon="1.695826">
        <ele>1025.8</ele>
        <time>2019-11-09T11:51:21.999Z</time>
      </trkpt>
      <trkpt lat="42.169473" lon="1.695622">
        <ele>1026.4</ele>
        <time>2019-11-09T11:51:39.999Z</time>
      </trkpt>
      <trkpt lat="42.169426" lon="1.695387">
        <ele>1026.6</ele>
        <time>2019-11-09T11:51:53.999Z</time>
      </trkpt>
      <trkpt lat="42.169346" lon="1.695153">
        <ele>1027.6</ele>
        <time>2019-11-09T11:52:11.999Z</time>
      </trkpt>
      <trkpt lat="42.169234" lon="1.694957">
        <ele>1027.0</ele>
        <time>2019-11-09T11:52:24.999Z</time>
      </trkpt>
      <trkpt lat="42.169078" lon="1.694817">
        <ele>1026.1</ele>
        <time>2019-11-09T11:52:42.999Z</time>
      </trkpt>
      <trkpt lat="42.168897" lon="1.694830">
        <ele>1025.8</ele>
        <time>2019-11-09T11:52:54.999Z</time>
      </trkpt>
      <trkpt lat="42.168710" lon="1.694809">
        <ele>1024.1</ele>
        <time>2019-11-09T11:53:8.999Z</time>
      </trkpt>
      <trkpt lat="42.168529" lon="1.694856">
        <ele>1023.6</ele>
        <time>2019-11-09T11:53:22.999Z</time>
      </trkpt>
      <trkpt lat="42.168375" lon="1.694995">
        <ele>1023.3</ele>
        <time>2019-11-09T11:53:40.999Z</time>
      </trkpt>
      <trkpt lat="42.168202" lon="1.694926">
        <ele>1025.2</ele>
        <time>2019-11-09T11:53:56.999Z</time>
      </trkpt>
      <trkpt lat="42.168049" lon="1.694792">
        <ele>1023.1</ele>
        <time>2019-11-09T11:54:14.000Z</time>
      </trkpt>
      <trkpt lat="42.168050" lon="1.694549">
        <ele>1022.1</ele>
        <time>2019-11-09T11:54:30.000Z</time>
      </trkpt>
      <trkpt lat="42.167918" lon="1.694380">
        <ele>1021.4</ele>
        <time>2019-11-09T11:54:45.000Z</time>
      </trkpt>
      <trkpt lat="42.167736" lon="1.694320">
        <ele>1020.1</ele>
        <time>2019-11-09T11:55:1.000Z</time>
      </trkpt>
      <trkpt lat="42.167630" lon="1.694113">
        <ele>1020.5</ele>
        <time>2019-11-09T11:55:54.000Z</time>
      </trkpt>
      <trkpt lat="42.167672" lon="1.693868">
        <ele>1019.5</ele>
        <time>2019-11-09T11:56:12.000Z</time>
      </trkpt>
      <trkpt lat="42.167642" lon="1.693627">
        <ele>1018.5</ele>
        <time>2019-11-09T11:56:26.000Z</time>
      </trkpt>
      <trkpt lat="42.167599" lon="1.693383">
        <ele>1018.1</ele>
        <time>2019-11-09T11:56:41.000Z</time>
      </trkpt>
      <trkpt lat="42.167543" lon="1.693146">
        <ele>1016.3</ele>
        <time>2019-11-09T11:56:58.000Z</time>
      </trkpt>
      <trkpt lat="42.167530" lon="1.692899">
        <ele>1014.2</ele>
        <time>2019-11-09T11:57:17.000Z</time>
      </trkpt>
      <trkpt lat="42.167485" lon="1.692651">
        <ele>1013.2</ele>
        <time>2019-11-09T11:57:34.000Z</time>
      </trkpt>
      <trkpt lat="42.167438" lon="1.692405">
        <ele>1011.4</ele>
        <time>2019-11-09T11:57:50.000Z</time>
      </trkpt>
      <trkpt lat="42.167475" lon="1.692149">
        <ele>1010.5</ele>
        <time>2019-11-09T11:58:8.000Z</time>
      </trkpt>
      <trkpt lat="42.167514" lon="1.691906">
        <ele>1008.6</ele>
        <time>2019-11-09T11:58:24.000Z</time>
      </trkpt>
      <trkpt lat="42.167522" lon="1.691655">
        <ele>1006.9</ele>
        <time>2019-11-09T11:58:43.000Z</time>
      </trkpt>
      <trkpt lat="42.167533" lon="1.691411">
        <ele>1005.4</ele>
        <time>2019-11-09T11:59:11.000Z</time>
      </trkpt>
      <trkpt lat="42.167532" lon="1.691163">
        <ele>1003.9</ele>
        <time>2019-11-09T11:59:31.000Z</time>
      </trkpt>
      <trkpt lat="42.167490" lon="1.690921">
        <ele>1003.7</ele>
        <time>2019-11-09T11:59:46.000Z</time>
      </trkpt>
      <trkpt lat="42.167438" lon="1.690685">
        <ele>1003.0</ele>
        <time>2019-11-09T12:00:2.000Z</time>
      </trkpt>
      <trkpt lat="42.167314" lon="1.690503">
        <ele>1002.9</ele>
        <time>2019-11-09T12:00:15.000Z</time>
      </trkpt>
      <trkpt lat="42.167157" lon="1.690344">
        <ele>1003.5</ele>
        <time>2019-11-09T12:00:33.000Z</time>
      </trkpt>
      <trkpt lat="42.166991" lon="1.690219">
        <ele>1002.7</ele>
        <time>2019-11-09T12:00:48.000Z</time>
      </trkpt>
      <trkpt lat="42.166835" lon="1.690094">
        <ele>1004.9</ele>
        <time>2019-11-09T12:02:45.000Z</time>
      </trkpt>
      <trkpt lat="42.166762" lon="1.689866">
        <ele>1006.3</ele>
        <time>2019-11-09T12:03:0.000Z</time>
      </trkpt>
      <trkpt lat="42.166693" lon="1.689638">
        <ele>1005.9</ele>
        <time>2019-11-09T12:03:12.000Z</time>
      </trkpt>
      <trkpt lat="42.166648" lon="1.689399">
        <ele>1003.7</ele>
        <time>2019-11-09T12:03:24.000Z</time>
      </trkpt>
      <trkpt lat="42.166503" lon="1.689253">
        <ele>1003.4</ele>
        <time>2019-11-09T12:04:8.000Z</time>
      </trkpt>
      <trkpt lat="42.166339" lon="1.689138">
        <ele>1002.3</ele>
        <time>2019-11-09T12:04:28.000Z</time>
      </trkpt>
      <trkpt lat="42.166152" lon="1.689080">
        <ele>1002.1</ele>
        <time>2019-11-09T12:04:55.000Z</time>
      </trkpt>
      <trkpt lat="42.165989" lon="1.688951">
        <ele>1001.5</ele>
        <time>2019-11-09T12:05:9.000Z</time>
      </trkpt>
      <trkpt lat="42.165835" lon="1.688817">
        <ele>1000.4</ele>
        <time>2019-11-09T12:05:22.000Z</time>
      </trkpt>
      <trkpt lat="42.165654" lon="1.688727">
        <ele>999.7</ele>
        <time>2019-11-09T12:05:36.000Z</time>
      </trkpt>
      <trkpt lat="42.165471" lon="1.688660">
        <ele>998.9</ele>
        <time>2019-11-09T12:05:50.000Z</time>
      </trkpt>
      <trkpt lat="42.165289" lon="1.688596">
        <ele>999.0</ele>
        <time>2019-11-09T12:06:4.000Z</time>
      </trkpt>
      <trkpt lat="42.165102" lon="1.688603">
        <ele>997.3</ele>
        <time>2019-11-09T12:06:19.000Z</time>
      </trkpt>
      <trkpt lat="42.164919" lon="1.688596">
        <ele>997.4</ele>
        <time>2019-11-09T12:06:31.000Z</time>
      </trkpt>
      <trkpt lat="42.164723" lon="1.688589">
        <ele>996.5</ele>
        <time>2019-11-09T12:06:43.000Z</time>
      </trkpt>
      <trkpt lat="42.164532" lon="1.688566">
        <ele>995.7</ele>
        <time>2019-11-09T12:06:55.000Z</time>
      </trkpt>
      <trkpt lat="42.164356" lon="1.688507">
        <ele>993.5</ele>
        <time>2019-11-09T12:07:11.000Z</time>
      </trkpt>
      <trkpt lat="42.164194" lon="1.688383">
        <ele>992.2</ele>
        <time>2019-11-09T12:07:42.000Z</time>
      </trkpt>
      <trkpt lat="42.164068" lon="1.688199">
        <ele>992.4</ele>
        <time>2019-11-09T12:07:55.000Z</time>
      </trkpt>
      <trkpt lat="42.163935" lon="1.688017">
        <ele>991.3</ele>
        <time>2019-11-09T12:08:8.000Z</time>
      </trkpt>
      <trkpt lat="42.163791" lon="1.687860">
        <ele>991.5</ele>
        <time>2019-11-09T12:08:21.000Z</time>
      </trkpt>
      <trkpt lat="42.163635" lon="1.687725">
        <ele>991.8</ele>
        <time>2019-11-09T12:08:34.000Z</time>
      </trkpt>
      <trkpt lat="42.163485" lon="1.687585">
        <ele>991.0</ele>
        <time>2019-11-09T12:08:48.000Z</time>
      </trkpt>
      <trkpt lat="42.163322" lon="1.687454">
        <ele>990.3</ele>
        <time>2019-11-09T12:09:2.000Z</time>
      </trkpt>
      <trkpt lat="42.163151" lon="1.687362">
        <ele>989.5</ele>
        <time>2019-11-09T12:09:15.000Z</time>
      </trkpt>
      <trkpt lat="42.163008" lon="1.687208">
        <ele>987.8</ele>
        <time>2019-11-09T12:09:29.000Z</time>
      </trkpt>
      <trkpt lat="42.162867" lon="1.687054">
        <ele>987.2</ele>
        <time>2019-11-09T12:09:41.000Z</time>
      </trkpt>
      <trkpt lat="42.162735" lon="1.686886">
        <ele>987.5</ele>
        <time>2019-11-09T12:09:55.000Z</time>
      </trkpt>
      <trkpt lat="42.162596" lon="1.686700">
        <ele>987.0</ele>
        <time>2019-11-09T12:10:11.000Z</time>
      </trkpt>
      <trkpt lat="42.162470" lon="1.686512">
        <ele>986.1</ele>
        <time>2019-11-09T12:10:23.000Z</time>
      </trkpt>
      <trkpt lat="42.162354" lon="1.686304">
        <ele>985.1</ele>
        <time>2019-11-09T12:10:36.000Z</time>
      </trkpt>
      <trkpt lat="42.162252" lon="1.686087">
        <ele>984.8</ele>
        <time>2019-11-09T12:10:51.000Z</time>
      </trkpt>
      <trkpt lat="42.162129" lon="1.685887">
        <ele>984.3</ele>
        <time>2019-11-09T12:11:6.000Z</time>
      </trkpt>
      <trkpt lat="42.161991" lon="1.685718">
        <ele>982.5</ele>
        <time>2019-11-09T12:11:17.000Z</time>
      </trkpt>
      <trkpt lat="42.161879" lon="1.685518">
        <ele>981.3</ele>
        <time>2019-11-09T12:11:31.000Z</time>
      </trkpt>
      <trkpt lat="42.161858" lon="1.685260">
        <ele>979.8</ele>
        <time>2019-11-09T12:11:47.000Z</time>
      </trkpt>
      <trkpt lat="42.161751" lon="1.685063">
        <ele>978.4</ele>
        <time>2019-11-09T12:11:57.000Z</time>
      </trkpt>
      <trkpt lat="42.161637" lon="1.684872">
        <ele>976.9</ele>
        <time>2019-11-09T12:12:10.000Z</time>
      </trkpt>
      <trkpt lat="42.161542" lon="1.684649">
        <ele>974.8</ele>
        <time>2019-11-09T12:12:23.000Z</time>
      </trkpt>
      <trkpt lat="42.161435" lon="1.684451">
        <ele>973.0</ele>
        <time>2019-11-09T12:12:36.000Z</time>
      </trkpt>
      <trkpt lat="42.161319" lon="1.684264">
        <ele>972.1</ele>
        <time>2019-11-09T12:12:50.000Z</time>
      </trkpt>
      <trkpt lat="42.161199" lon="1.684071">
        <ele>971.0</ele>
        <time>2019-11-09T12:13:5.000Z</time>
      </trkpt>
      <trkpt lat="42.161127" lon="1.683840">
        <ele>970.1</ele>
        <time>2019-11-09T12:13:19.000Z</time>
      </trkpt>
      <trkpt lat="42.161043" lon="1.683601">
        <ele>968.6</ele>
        <time>2019-11-09T12:13:35.000Z</time>
      </trkpt>
      <trkpt lat="42.160954" lon="1.683379">
        <ele>966.1</ele>
        <time>2019-11-09T12:13:49.000Z</time>
      </trkpt>
      <trkpt lat="42.160859" lon="1.683161">
        <ele>964.8</ele>
        <time>2019-11-09T12:14:4.000Z</time>
      </trkpt>
      <trkpt lat="42.160753" lon="1.682952">
        <ele>964.4</ele>
        <time>2019-11-09T12:14:17.000Z</time>
      </trkpt>
      <trkpt lat="42.160664" lon="1.682736">
        <ele>962.2</ele>
        <time>2019-11-09T12:14:33.000Z</time>
      </trkpt>
      <trkpt lat="42.160571" lon="1.682519">
        <ele>961.5</ele>
        <time>2019-11-09T12:14:46.000Z</time>
      </trkpt>
      <trkpt lat="42.160507" lon="1.682283">
        <ele>960.2</ele>
        <time>2019-11-09T12:14:59.000Z</time>
      </trkpt>
      <trkpt lat="42.160383" lon="1.682096">
        <ele>958.7</ele>
        <time>2019-11-09T12:15:11.000Z</time>
      </trkpt>
      <trkpt lat="42.160301" lon="1.681879">
        <ele>956.9</ele>
        <time>2019-11-09T12:15:27.000Z</time>
      </trkpt>
      <trkpt lat="42.160144" lon="1.681723">
        <ele>956.1</ele>
        <time>2019-11-09T12:15:39.000Z</time>
      </trkpt>
      <trkpt lat="42.160051" lon="1.681497">
        <ele>955.7</ele>
        <time>2019-11-09T12:15:52.000Z</time>
      </trkpt>
      <trkpt lat="42.159919" lon="1.681323">
        <ele>955.5</ele>
        <time>2019-11-09T12:16:5.000Z</time>
      </trkpt>
      <trkpt lat="42.159792" lon="1.681150">
        <ele>954.9</ele>
        <time>2019-11-09T12:16:16.000Z</time>
      </trkpt>
      <trkpt lat="42.159623" lon="1.681060">
        <ele>955.5</ele>
        <time>2019-11-09T12:16:28.000Z</time>
      </trkpt>
      <trkpt lat="42.159450" lon="1.681133">
        <ele>954.8</ele>
        <time>2019-11-09T12:16:39.000Z</time>
      </trkpt>
      <trkpt lat="42.159267" lon="1.681096">
        <ele>955.0</ele>
        <time>2019-11-09T12:16:53.000Z</time>
      </trkpt>
      <trkpt lat="42.159076" lon="1.681107">
        <ele>954.3</ele>
        <time>2019-11-09T12:17:5.000Z</time>
      </trkpt>
      <trkpt lat="42.158891" lon="1.681111">
        <ele>953.9</ele>
        <time>2019-11-09T12:17:20.000Z</time>
      </trkpt>
      <trkpt lat="42.158721" lon="1.680995">
        <ele>953.7</ele>
        <time>2019-11-09T12:17:36.000Z</time>
      </trkpt>
      <trkpt lat="42.158551" lon="1.680913">
        <ele>953.4</ele>
        <time>2019-11-09T12:17:48.000Z</time>
      </trkpt>
      <trkpt lat="42.158377" lon="1.680816">
        <ele>952.3</ele>
        <time>2019-11-09T12:18:0.000Z</time>
      </trkpt>
      <trkpt lat="42.158202" lon="1.680735">
        <ele>951.4</ele>
        <time>2019-11-09T12:18:13.000Z</time>
      </trkpt>
      <trkpt lat="42.158027" lon="1.680657">
        <ele>949.9</ele>
        <time>2019-11-09T12:18:27.000Z</time>
      </trkpt>
      <trkpt lat="42.157859" lon="1.680566">
        <ele>948.9</ele>
        <time>2019-11-09T12:18:39.000Z</time>
      </trkpt>
      <trkpt lat="42.157694" lon="1.680447">
        <ele>946.5</ele>
        <time>2019-11-09T12:18:54.000Z</time>
      </trkpt>
      <trkpt lat="42.157530" lon="1.680329">
        <ele>943.4</ele>
        <time>2019-11-09T12:19:10.000Z</time>
      </trkpt>
      <trkpt lat="42.157378" lon="1.680178">
        <ele>939.3</ele>
        <time>2019-11-09T12:19:26.000Z</time>
      </trkpt>
      <trkpt lat="42.157238" lon="1.680006">
        <ele>937.2</ele>
        <time>2019-11-09T12:19:40.000Z</time>
      </trkpt>
      <trkpt lat="42.157091" lon="1.679842">
        <ele>936.2</ele>
        <time>2019-11-09T12:19:54.000Z</time>
      </trkpt>
      <trkpt lat="42.156921" lon="1.679716">
        <ele>935.0</ele>
        <time>2019-11-09T12:20:6.000Z</time>
      </trkpt>
      <trkpt lat="42.156756" lon="1.679606">
        <ele>933.4</ele>
        <time>2019-11-09T12:20:20.000Z</time>
      </trkpt>
      <trkpt lat="42.156588" lon="1.679499">
        <ele>932.7</ele>
        <time>2019-11-09T12:20:34.000Z</time>
      </trkpt>
      <trkpt lat="42.156425" lon="1.679393">
        <ele>931.3</ele>
        <time>2019-11-09T12:20:47.000Z</time>
      </trkpt>
      <trkpt lat="42.156246" lon="1.679338">
        <ele>929.6</ele>
        <time>2019-11-09T12:21:35.000Z</time>
      </trkpt>
      <trkpt lat="42.156094" lon="1.679200">
        <ele>926.6</ele>
        <time>2019-11-09T12:21:56.000Z</time>
      </trkpt>
      <trkpt lat="42.156122" lon="1.678959">
        <ele>927.6</ele>
        <time>2019-11-09T12:22:28.000Z</time>
      </trkpt>
      <trkpt lat="42.155943" lon="1.678888">
        <ele>934.2</ele>
        <time>2019-11-09T12:22:56.000Z</time>
      </trkpt>
      <trkpt lat="42.155782" lon="1.678755">
        <ele>934.3</ele>
        <time>2019-11-09T12:23:26.000Z</time>
      </trkpt>
      <trkpt lat="42.155663" lon="1.678563">
        <ele>941.1</ele>
        <time>2019-11-09T12:23:51.000Z</time>
      </trkpt>
      <trkpt lat="42.155487" lon="1.678475">
        <ele>945.0</ele>
        <time>2019-11-09T12:24:13.000Z</time>
      </trkpt>
      <trkpt lat="42.155302" lon="1.678523">
        <ele>946.5</ele>
        <time>2019-11-09T12:24:27.000Z</time>
      </trkpt>
      <trkpt lat="42.155119" lon="1.678527">
        <ele>947.3</ele>
        <time>2019-11-09T12:25:4.000Z</time>
      </trkpt>
      <trkpt lat="42.154953" lon="1.678411">
        <ele>946.4</ele>
        <time>2019-11-09T12:25:21.000Z</time>
      </trkpt>
      <trkpt lat="42.154773" lon="1.678371">
        <ele>946.3</ele>
        <time>2019-11-09T12:25:37.999Z</time>
      </trkpt>
      <trkpt lat="42.154587" lon="1.678400">
        <ele>945.7</ele>
        <time>2019-11-09T12:25:52.999Z</time>
      </trkpt>
      <trkpt lat="42.154404" lon="1.678440">
        <ele>943.9</ele>
        <time>2019-11-09T12:26:18.999Z</time>
      </trkpt>
      <trkpt lat="42.154216" lon="1.678434">
        <ele>939.1</ele>
        <time>2019-11-09T12:26:49.999Z</time>
      </trkpt>
      <trkpt lat="42.154031" lon="1.678474">
        <ele>935.8</ele>
        <time>2019-11-09T12:27:7.999Z</time>
      </trkpt>
      <trkpt lat="42.153849" lon="1.678528">
        <ele>931.2</ele>
        <time>2019-11-09T12:27:30.999Z</time>
      </trkpt>
      <trkpt lat="42.153661" lon="1.678530">
        <ele>927.5</ele>
        <time>2019-11-09T12:27:52.999Z</time>
      </trkpt>
      <trkpt lat="42.153510" lon="1.678386">
        <ele>932.6</ele>
        <time>2019-11-09T12:28:21.999Z</time>
      </trkpt>
      <trkpt lat="42.153332" lon="1.678319">
        <ele>937.8</ele>
        <time>2019-11-09T12:28:46.999Z</time>
      </trkpt>
      <trkpt lat="42.153154" lon="1.678351">
        <ele>942.1</ele>
        <time>2019-11-09T12:29:13.999Z</time>
      </trkpt>
      <trkpt lat="42.152974" lon="1.678324">
        <ele>941.0</ele>
        <time>2019-11-09T12:29:47.999Z</time>
      </trkpt>
      <trkpt lat="42.152825" lon="1.678482">
        <ele>935.5</ele>
        <time>2019-11-09T12:30:15.999Z</time>
      </trkpt>
      <trkpt lat="42.152650" lon="1.678550">
        <ele>931.0</ele>
        <time>2019-11-09T12:30:49.999Z</time>
      </trkpt>
      <trkpt lat="42.152467" lon="1.678552">
        <ele>922.4</ele>
        <time>2019-11-09T12:31:51.999Z</time>
      </trkpt>
      <trkpt lat="42.152275" lon="1.678609">
        <ele>924.2</ele>
        <time>2019-11-09T12:32:16.999Z</time>
      </trkpt>
      <trkpt lat="42.152084" lon="1.678642">
        <ele>925.2</ele>
        <time>2019-11-09T12:32:35.999Z</time>
      </trkpt>
      <trkpt lat="42.151907" lon="1.678559">
        <ele>926.7</ele>
        <time>2019-11-09T12:33:1.999Z</time>
      </trkpt>
      <trkpt lat="42.151732" lon="1.678641">
        <ele>926.5</ele>
        <time>2019-11-09T12:33:26.999Z</time>
      </trkpt>
      <trkpt lat="42.151551" lon="1.678653">
        <ele>924.4</ele>
        <time>2019-11-09T12:33:55.999Z</time>
      </trkpt>
      <trkpt lat="42.151367" lon="1.678641">
        <ele>925.1</ele>
        <time>2019-11-09T12:34:18.999Z</time>
      </trkpt>
      <trkpt lat="42.151182" lon="1.678679">
        <ele>920.6</ele>
        <time>2019-11-09T12:34:48.999Z</time>
      </trkpt>
      <trkpt lat="42.151009" lon="1.678610">
        <ele>918.2</ele>
        <time>2019-11-09T12:35:3.999Z</time>
      </trkpt>
      <trkpt lat="42.150832" lon="1.678539">
        <ele>917.4</ele>
        <time>2019-11-09T12:35:18.999Z</time>
      </trkpt>
      <trkpt lat="42.150649" lon="1.678555">
        <ele>917.4</ele>
        <time>2019-11-09T12:35:31.999Z</time>
      </trkpt>
      <trkpt lat="42.150458" lon="1.678583">
        <ele>918.6</ele>
        <time>2019-11-09T12:35:44.999Z</time>
      </trkpt>
      <trkpt lat="42.150278" lon="1.678656">
        <ele>918.5</ele>
        <time>2019-11-09T12:35:57.999Z</time>
      </trkpt>
      <trkpt lat="42.150100" lon="1.678731">
        <ele>916.4</ele>
        <time>2019-11-09T12:36:13.999Z</time>
      </trkpt>
      <trkpt lat="42.149971" lon="1.678912">
        <ele>912.3</ele>
        <time>2019-11-09T12:36:29.999Z</time>
      </trkpt>
      <trkpt lat="42.149840" lon="1.679099">
        <ele>909.7</ele>
        <time>2019-11-09T12:36:43.999Z</time>
      </trkpt>
      <trkpt lat="42.149657" lon="1.679151">
        <ele>908.8</ele>
        <time>2019-11-09T12:36:58.999Z</time>
      </trkpt>
      <trkpt lat="42.149472" lon="1.679192">
        <ele>911.0</ele>
        <time>2019-11-09T12:37:13.999Z</time>
      </trkpt>
      <trkpt lat="42.149281" lon="1.679206">
        <ele>912.7</ele>
        <time>2019-11-09T12:37:25.999Z</time>
      </trkpt>
      <trkpt lat="42.149090" lon="1.679212">
        <ele>915.2</ele>
        <time>2019-11-09T12:37:40.999Z</time>
      </trkpt>
      <trkpt lat="42.148909" lon="1.679147">
        <ele>916.7</ele>
        <time>2019-11-09T12:37:56.999Z</time>
      </trkpt>
      <trkpt lat="42.148723" lon="1.679150">
        <ele>916.7</ele>
        <time>2019-11-09T12:38:10.999Z</time>
      </trkpt>
      <trkpt lat="42.148549" lon="1.679245">
        <ele>916.2</ele>
        <time>2019-11-09T12:38:22.999Z</time>
      </trkpt>
      <trkpt lat="42.148372" lon="1.679305">
        <ele>916.4</ele>
        <time>2019-11-09T12:38:35.999Z</time>
      </trkpt>
      <trkpt lat="42.148205" lon="1.679399">
        <ele>916.7</ele>
        <time>2019-11-09T12:38:47.999Z</time>
      </trkpt>
      <trkpt lat="42.148025" lon="1.679454">
        <ele>916.3</ele>
        <time>2019-11-09T12:39:2.999Z</time>
      </trkpt>
      <trkpt lat="42.147839" lon="1.679503">
        <ele>916.0</ele>
        <time>2019-11-09T12:39:15.999Z</time>
      </trkpt>
      <trkpt lat="42.147645" lon="1.679509">
        <ele>913.8</ele>
        <time>2019-11-09T12:39:29.999Z</time>
      </trkpt>
      <trkpt lat="42.147458" lon="1.679553">
        <ele>911.3</ele>
        <time>2019-11-09T12:39:42.999Z</time>
      </trkpt>
      <trkpt lat="42.147276" lon="1.679520">
        <ele>908.8</ele>
        <time>2019-11-09T12:39:57.999Z</time>
      </trkpt>
      <trkpt lat="42.147150" lon="1.679341">
        <ele>907.1</ele>
        <time>2019-11-09T12:40:9.999Z</time>
      </trkpt>
      <trkpt lat="42.147021" lon="1.679159">
        <ele>906.7</ele>
        <time>2019-11-09T12:40:22.999Z</time>
      </trkpt>
      <trkpt lat="42.146870" lon="1.679001">
        <ele>905.0</ele>
        <time>2019-11-09T12:40:36.999Z</time>
      </trkpt>
      <trkpt lat="42.146731" lon="1.678839">
        <ele>905.1</ele>
        <time>2019-11-09T12:40:49.999Z</time>
      </trkpt>
      <trkpt lat="42.146590" lon="1.678661">
        <ele>905.6</ele>
        <time>2019-11-09T12:41:3.999Z</time>
      </trkpt>
      <trkpt lat="42.146455" lon="1.678498">
        <ele>905.2</ele>
        <time>2019-11-09T12:41:16.999Z</time>
      </trkpt>
      <trkpt lat="42.146304" lon="1.678331">
        <ele>903.0</ele>
        <time>2019-11-09T12:41:27.999Z</time>
      </trkpt>
      <trkpt lat="42.146127" lon="1.678246">
        <ele>902.5</ele>
        <time>2019-11-09T12:41:39.999Z</time>
      </trkpt>
      <trkpt lat="42.145968" lon="1.678110">
        <ele>902.5</ele>
        <time>2019-11-09T12:41:53.999Z</time>
      </trkpt>
      <trkpt lat="42.145805" lon="1.677992">
        <ele>902.1</ele>
        <time>2019-11-09T12:42:6.999Z</time>
      </trkpt>
      <trkpt lat="42.145648" lon="1.677849">
        <ele>901.7</ele>
        <time>2019-11-09T12:42:19.999Z</time>
      </trkpt>
      <trkpt lat="42.145471" lon="1.677755">
        <ele>901.0</ele>
        <time>2019-11-09T12:42:33.999Z</time>
      </trkpt>
      <trkpt lat="42.145319" lon="1.677602">
        <ele>900.6</ele>
        <time>2019-11-09T12:42:47.999Z</time>
      </trkpt>
      <trkpt lat="42.145149" lon="1.677493">
        <ele>899.3</ele>
        <time>2019-11-09T12:42:59.999Z</time>
      </trkpt>
      <trkpt lat="42.144985" lon="1.677350">
        <ele>899.0</ele>
        <time>2019-11-09T12:43:13.999Z</time>
      </trkpt>
      <trkpt lat="42.144796" lon="1.677276">
        <ele>898.0</ele>
        <time>2019-11-09T12:43:27.999Z</time>
      </trkpt>
      <trkpt lat="42.144609" lon="1.677232">
        <ele>898.2</ele>
        <time>2019-11-09T12:43:42.999Z</time>
      </trkpt>
      <trkpt lat="42.144423" lon="1.677183">
        <ele>896.8</ele>
        <time>2019-11-09T12:43:57.999Z</time>
      </trkpt>
      <trkpt lat="42.144239" lon="1.677110">
        <ele>897.7</ele>
        <time>2019-11-09T12:44:11.999Z</time>
      </trkpt>
      <trkpt lat="42.144068" lon="1.677007">
        <ele>901.5</ele>
        <time>2019-11-09T12:44:29.999Z</time>
      </trkpt>
      <trkpt lat="42.143911" lon="1.676880">
        <ele>904.8</ele>
        <time>2019-11-09T12:44:44.999Z</time>
      </trkpt>
      <trkpt lat="42.143789" lon="1.676689">
        <ele>908.3</ele>
        <time>2019-11-09T12:45:1.999Z</time>
      </trkpt>
      <trkpt lat="42.143623" lon="1.676575">
        <ele>911.2</ele>
        <time>2019-11-09T12:45:17.999Z</time>
      </trkpt>
      <trkpt lat="42.143482" lon="1.676421">
        <ele>914.3</ele>
        <time>2019-11-09T12:45:33.999Z</time>
      </trkpt>
      <trkpt lat="42.143400" lon="1.676203">
        <ele>915.4</ele>
        <time>2019-11-09T12:45:48.999Z</time>
      </trkpt>
      <trkpt lat="42.143363" lon="1.675954">
        <ele>914.0</ele>
        <time>2019-11-09T12:46:7.999Z</time>
      </trkpt>
      <trkpt lat="42.143370" lon="1.675702">
        <ele>911.5</ele>
        <time>2019-11-09T12:46:23.999Z</time>
      </trkpt>
      <trkpt lat="42.143454" lon="1.675487">
        <ele>908.7</ele>
        <time>2019-11-09T12:46:39.999Z</time>
      </trkpt>
      <trkpt lat="42.143563" lon="1.675271">
        <ele>905.6</ele>
        <time>2019-11-09T12:46:57.999Z</time>
      </trkpt>
      <trkpt lat="42.143392" lon="1.675170">
        <ele>905.3</ele>
        <time>2019-11-09T12:47:29.999Z</time>
      </trkpt>
      <trkpt lat="42.143216" lon="1.675260">
        <ele>906.6</ele>
        <time>2019-11-09T12:47:47.999Z</time>
      </trkpt>
      <trkpt lat="42.143054" lon="1.675367">
        <ele>908.6</ele>
        <time>2019-11-09T12:48:7.999Z</time>
      </trkpt>
      <trkpt lat="42.142875" lon="1.675425">
        <ele>910.1</ele>
        <time>2019-11-09T12:48:26.999Z</time>
      </trkpt>
      <trkpt lat="42.142703" lon="1.675335">
        <ele>907.7</ele>
        <time>2019-11-09T12:48:49.999Z</time>
      </trkpt>
      <trkpt lat="42.142674" lon="1.675087">
        <ele>904.2</ele>
        <time>2019-11-09T12:49:6.999Z</time>
      </trkpt>
      <trkpt lat="42.142581" lon="1.674862">
        <ele>901.8</ele>
        <time>2019-11-09T12:49:22.999Z</time>
      </trkpt>
      <trkpt lat="42.142462" lon="1.674657">
        <ele>900.8</ele>
        <time>2019-11-09T12:49:37.999Z</time>
      </trkpt>
      <trkpt lat="42.142351" lon="1.674451">
        <ele>900.5</ele>
        <time>2019-11-09T12:49:51.999Z</time>
      </trkpt>
      <trkpt lat="42.142254" lon="1.674230">
        <ele>900.0</ele>
        <time>2019-11-09T12:50:7.999Z</time>
      </trkpt>
      <trkpt lat="42.142147" lon="1.674021">
        <ele>898.5</ele>
        <time>2019-11-09T12:50:23.999Z</time>
      </trkpt>
      <trkpt lat="42.142046" lon="1.673811">
        <ele>896.2</ele>
        <time>2019-11-09T12:50:36.999Z</time>
      </trkpt>
      <trkpt lat="42.141944" lon="1.673604">
        <ele>893.3</ele>
        <time>2019-11-09T12:50:52.999Z</time>
      </trkpt>
      <trkpt lat="42.141809" lon="1.673419">
        <ele>890.8</ele>
        <time>2019-11-09T12:51:9.999Z</time>
      </trkpt>
      <trkpt lat="42.141641" lon="1.673324">
        <ele>889.2</ele>
        <time>2019-11-09T12:51:23.999Z</time>
      </trkpt>
      <trkpt lat="42.141468" lon="1.673220">
        <ele>887.2</ele>
        <time>2019-11-09T12:51:37.999Z</time>
      </trkpt>
      <trkpt lat="42.141298" lon="1.673101">
        <ele>886.1</ele>
        <time>2019-11-09T12:52:0.999Z</time>
      </trkpt>
      <trkpt lat="42.141181" lon="1.672913">
        <ele>884.7</ele>
        <time>2019-11-09T12:52:16.999Z</time>
      </trkpt>
      <trkpt lat="42.141124" lon="1.672679">
        <ele>883.0</ele>
        <time>2019-11-09T12:52:34.999Z</time>
      </trkpt>
      <trkpt lat="42.141090" lon="1.672429">
        <ele>882.7</ele>
        <time>2019-11-09T12:52:50.999Z</time>
      </trkpt>
      <trkpt lat="42.141068" lon="1.672172">
        <ele>882.9</ele>
        <time>2019-11-09T12:53:7.999Z</time>
      </trkpt>
      <trkpt lat="42.140997" lon="1.671935">
        <ele>883.4</ele>
        <time>2019-11-09T12:53:22.999Z</time>
        <cmt>0000045</cmt>
        <sym>Waypoint</sym>
      </trkpt>
    </trkseg>
  </trk>
</gpx>
